<?xml version="1.0" encoding="UTF-8" standalone="no" ?>
<gpx xmlns="http://www.topografix.com/GPX/1/1" xmlns:xsi="http://www.w3.org/2001/XMLSchema-instance" xsi:schemaLocation="http://www.topografix.com/GPX/1/1 http://www.topografix.com/GPX/1/1/gpx.xsd" version="1.1" creator="VisuGPX - https://www.visugpx.com">
  <metadata>
    <name>IMF 28GG du 020210 1° partie rue de la croix-crottefou</name>
    <desc><![CDATA[voici la 1ère partie de la marche de gris 1 composé du capitaine logrieco, chef milin, chef maj, chef sonar, mdl vilanueva, mdl culembourg,et chef noirot . matériel gps evadeo ushuaia ]]></desc>
  </metadata>
  <wpt lat="47.38409" lon="3.88824">
    <ele>108</ele>
  </wpt>
  <wpt lat="47.3855" lon="3.8878">
    <ele>354</ele>
    <name><![CDATA[WP 020210]]></name>
  </wpt>
  <wpt lat="47.3519" lon="3.9586">
    <ele>326</ele>
  </wpt>
  <trk>
    <name><![CDATA[IMF 28GG du 020210 1° partie rue de la croix-crottefou_1]]></name>
    <trkseg>
      <trkpt lat="47.38409" lon="3.88824">
        <ele>108</ele>
        <time>2010-02-02T20:03:51Z</time>
      </trkpt>
      <trkpt lat="47.38395" lon="3.88812">
        <ele>108</ele>
        <time>2010-02-02T20:03:54Z</time>
      </trkpt>
      <trkpt lat="47.38405" lon="3.88821">
        <ele>108</ele>
        <time>2010-02-02T20:03:55Z</time>
      </trkpt>
      <trkpt lat="47.38417" lon="3.88821">
        <ele>108</ele>
        <time>2010-02-02T20:03:58Z</time>
      </trkpt>
      <trkpt lat="47.384" lon="3.88816">
        <ele>108</ele>
        <time>2010-02-02T20:04:00Z</time>
      </trkpt>
      <trkpt lat="47.38522" lon="3.88892">
        <ele>319</ele>
        <time>2010-02-02T20:04:03Z</time>
      </trkpt>
      <trkpt lat="47.3853" lon="3.88897">
        <ele>344</ele>
        <time>2010-02-02T20:04:10Z</time>
      </trkpt>
      <trkpt lat="47.38523" lon="3.88887">
        <ele>352</ele>
        <time>2010-02-02T20:06:07Z</time>
      </trkpt>
      <trkpt lat="47.38521" lon="3.88874">
        <ele>360</ele>
        <time>2010-02-02T20:06:21Z</time>
      </trkpt>
      <trkpt lat="47.38527" lon="3.88884">
        <ele>350</ele>
        <time>2010-02-02T20:06:41Z</time>
      </trkpt>
      <trkpt lat="47.38526" lon="3.88803">
        <ele>353</ele>
        <time>2010-02-02T20:13:30Z</time>
      </trkpt>
      <trkpt lat="47.38543" lon="3.88786">
        <ele>353</ele>
        <time>2010-02-02T20:13:31Z</time>
      </trkpt>
      <trkpt lat="47.38551" lon="3.88779">
        <ele>353</ele>
        <time>2010-02-02T20:13:39Z</time>
      </trkpt>
      <trkpt lat="47.3856" lon="3.8877">
        <ele>353</ele>
        <time>2010-02-02T20:13:48Z</time>
      </trkpt>
      <trkpt lat="47.3855" lon="3.8878">
        <ele>354</ele>
        <time>2010-02-02T20:13:38Z</time>
      </trkpt>
      <trkpt lat="47.38567" lon="3.88762">
        <ele>353</ele>
        <time>2010-02-02T20:13:56Z</time>
      </trkpt>
      <trkpt lat="47.38574" lon="3.88753">
        <ele>353</ele>
        <time>2010-02-02T20:14:03Z</time>
      </trkpt>
      <trkpt lat="47.38581" lon="3.88743">
        <ele>353</ele>
        <time>2010-02-02T20:14:10Z</time>
      </trkpt>
      <trkpt lat="47.38589" lon="3.88736">
        <ele>353</ele>
        <time>2010-02-02T20:14:17Z</time>
      </trkpt>
      <trkpt lat="47.38597" lon="3.88728">
        <ele>353</ele>
        <time>2010-02-02T20:14:24Z</time>
      </trkpt>
      <trkpt lat="47.38605" lon="3.88722">
        <ele>353</ele>
        <time>2010-02-02T20:14:35Z</time>
      </trkpt>
      <trkpt lat="47.38611" lon="3.88711">
        <ele>344</ele>
        <time>2010-02-02T20:16:46Z</time>
      </trkpt>
      <trkpt lat="47.38619" lon="3.88704">
        <ele>344</ele>
        <time>2010-02-02T20:17:11Z</time>
      </trkpt>
      <trkpt lat="47.3861" lon="3.8871">
        <ele>352</ele>
        <time>2010-02-02T20:19:53Z</time>
      </trkpt>
      <trkpt lat="47.38602" lon="3.88718">
        <ele>352</ele>
        <time>2010-02-02T20:20:00Z</time>
      </trkpt>
      <trkpt lat="47.38594" lon="3.88728">
        <ele>352</ele>
        <time>2010-02-02T20:20:09Z</time>
      </trkpt>
      <trkpt lat="47.38586" lon="3.88736">
        <ele>352</ele>
        <time>2010-02-02T20:20:18Z</time>
      </trkpt>
      <trkpt lat="47.38578" lon="3.88744">
        <ele>352</ele>
        <time>2010-02-02T20:20:25Z</time>
      </trkpt>
      <trkpt lat="47.38572" lon="3.88753">
        <ele>352</ele>
        <time>2010-02-02T20:20:35Z</time>
      </trkpt>
      <trkpt lat="47.38564" lon="3.88762">
        <ele>352</ele>
        <time>2010-02-02T20:20:46Z</time>
      </trkpt>
      <trkpt lat="47.38556" lon="3.8877">
        <ele>352</ele>
        <time>2010-02-02T20:20:55Z</time>
      </trkpt>
      <trkpt lat="47.38549" lon="3.88778">
        <ele>352</ele>
        <time>2010-02-02T20:21:04Z</time>
      </trkpt>
      <trkpt lat="47.38541" lon="3.88786">
        <ele>352</ele>
        <time>2010-02-02T20:21:11Z</time>
      </trkpt>
      <trkpt lat="47.38534" lon="3.88794">
        <ele>352</ele>
        <time>2010-02-02T20:21:19Z</time>
      </trkpt>
      <trkpt lat="47.38527" lon="3.88806">
        <ele>352</ele>
        <time>2010-02-02T20:21:26Z</time>
      </trkpt>
      <trkpt lat="47.38522" lon="3.88817">
        <ele>352</ele>
        <time>2010-02-02T20:21:35Z</time>
      </trkpt>
      <trkpt lat="47.38516" lon="3.88829">
        <ele>352</ele>
        <time>2010-02-02T20:21:42Z</time>
      </trkpt>
      <trkpt lat="47.38516" lon="3.88842">
        <ele>352</ele>
        <time>2010-02-02T20:22:01Z</time>
      </trkpt>
      <trkpt lat="47.38519" lon="3.88855">
        <ele>352</ele>
        <time>2010-02-02T20:22:18Z</time>
      </trkpt>
      <trkpt lat="47.38522" lon="3.88867">
        <ele>352</ele>
        <time>2010-02-02T20:22:34Z</time>
      </trkpt>
      <trkpt lat="47.38524" lon="3.88881">
        <ele>352</ele>
        <time>2010-02-02T20:22:53Z</time>
      </trkpt>
      <trkpt lat="47.38523" lon="3.88894">
        <ele>352</ele>
        <time>2010-02-02T20:23:14Z</time>
      </trkpt>
      <trkpt lat="47.3852" lon="3.88907">
        <ele>352</ele>
        <time>2010-02-02T20:23:38Z</time>
      </trkpt>
      <trkpt lat="47.3852" lon="3.88922">
        <ele>352</ele>
        <time>2010-02-02T20:23:45Z</time>
      </trkpt>
      <trkpt lat="47.38523" lon="3.88935">
        <ele>352</ele>
        <time>2010-02-02T20:23:51Z</time>
      </trkpt>
      <trkpt lat="47.38521" lon="3.88948">
        <ele>352</ele>
        <time>2010-02-02T20:23:58Z</time>
      </trkpt>
      <trkpt lat="47.38514" lon="3.88957">
        <ele>346</ele>
        <time>2010-02-02T20:24:12Z</time>
      </trkpt>
      <trkpt lat="47.38508" lon="3.88968">
        <ele>346</ele>
        <time>2010-02-02T20:24:21Z</time>
      </trkpt>
      <trkpt lat="47.385" lon="3.88974">
        <ele>346</ele>
        <time>2010-02-02T20:24:29Z</time>
      </trkpt>
      <trkpt lat="47.38492" lon="3.88984">
        <ele>346</ele>
        <time>2010-02-02T20:24:35Z</time>
      </trkpt>
      <trkpt lat="47.38486" lon="3.88994">
        <ele>346</ele>
        <time>2010-02-02T20:24:41Z</time>
      </trkpt>
      <trkpt lat="47.38481" lon="3.89006">
        <ele>346</ele>
        <time>2010-02-02T20:24:49Z</time>
      </trkpt>
      <trkpt lat="47.38473" lon="3.89016">
        <ele>346</ele>
        <time>2010-02-02T20:24:58Z</time>
      </trkpt>
      <trkpt lat="47.38468" lon="3.89027">
        <ele>346</ele>
        <time>2010-02-02T20:25:08Z</time>
      </trkpt>
      <trkpt lat="47.38462" lon="3.89038">
        <ele>346</ele>
        <time>2010-02-02T20:25:18Z</time>
      </trkpt>
      <trkpt lat="47.38456" lon="3.89049">
        <ele>352</ele>
        <time>2010-02-02T20:25:26Z</time>
      </trkpt>
      <trkpt lat="47.38449" lon="3.8906">
        <ele>352</ele>
        <time>2010-02-02T20:25:34Z</time>
      </trkpt>
      <trkpt lat="47.38443" lon="3.89071">
        <ele>352</ele>
        <time>2010-02-02T20:25:43Z</time>
      </trkpt>
      <trkpt lat="47.38438" lon="3.89084">
        <ele>352</ele>
        <time>2010-02-02T20:25:52Z</time>
      </trkpt>
      <trkpt lat="47.3843" lon="3.89091">
        <ele>352</ele>
        <time>2010-02-02T20:25:59Z</time>
      </trkpt>
      <trkpt lat="47.38422" lon="3.89101">
        <ele>352</ele>
        <time>2010-02-02T20:26:08Z</time>
      </trkpt>
      <trkpt lat="47.38416" lon="3.89112">
        <ele>352</ele>
        <time>2010-02-02T20:26:14Z</time>
      </trkpt>
      <trkpt lat="47.38408" lon="3.89121">
        <ele>352</ele>
        <time>2010-02-02T20:26:19Z</time>
      </trkpt>
      <trkpt lat="47.38403" lon="3.89132">
        <ele>352</ele>
        <time>2010-02-02T20:26:26Z</time>
      </trkpt>
      <trkpt lat="47.3839" lon="3.89139">
        <ele>352</ele>
        <time>2010-02-02T20:26:34Z</time>
      </trkpt>
      <trkpt lat="47.38382" lon="3.89147">
        <ele>352</ele>
        <time>2010-02-02T20:26:42Z</time>
      </trkpt>
      <trkpt lat="47.38372" lon="3.89148">
        <ele>352</ele>
        <time>2010-02-02T20:26:52Z</time>
      </trkpt>
      <trkpt lat="47.38363" lon="3.8915">
        <ele>352</ele>
        <time>2010-02-02T20:27:00Z</time>
      </trkpt>
      <trkpt lat="47.38352" lon="3.89157">
        <ele>352</ele>
        <time>2010-02-02T20:27:07Z</time>
      </trkpt>
      <trkpt lat="47.38344" lon="3.89163">
        <ele>352</ele>
        <time>2010-02-02T20:27:15Z</time>
      </trkpt>
      <trkpt lat="47.38336" lon="3.89169">
        <ele>352</ele>
        <time>2010-02-02T20:27:21Z</time>
      </trkpt>
      <trkpt lat="47.38327" lon="3.89176">
        <ele>352</ele>
        <time>2010-02-02T20:27:29Z</time>
      </trkpt>
      <trkpt lat="47.38318" lon="3.89183">
        <ele>343</ele>
        <time>2010-02-02T20:27:36Z</time>
      </trkpt>
      <trkpt lat="47.38309" lon="3.8919">
        <ele>343</ele>
        <time>2010-02-02T20:27:44Z</time>
      </trkpt>
      <trkpt lat="47.383" lon="3.89195">
        <ele>343</ele>
        <time>2010-02-02T20:27:52Z</time>
      </trkpt>
      <trkpt lat="47.38292" lon="3.89199">
        <ele>343</ele>
        <time>2010-02-02T20:27:59Z</time>
      </trkpt>
      <trkpt lat="47.38282" lon="3.89205">
        <ele>343</ele>
        <time>2010-02-02T20:28:05Z</time>
      </trkpt>
      <trkpt lat="47.38273" lon="3.89209">
        <ele>343</ele>
        <time>2010-02-02T20:28:11Z</time>
      </trkpt>
      <trkpt lat="47.38263" lon="3.89212">
        <ele>343</ele>
        <time>2010-02-02T20:28:20Z</time>
      </trkpt>
      <trkpt lat="47.38254" lon="3.89214">
        <ele>343</ele>
        <time>2010-02-02T20:28:40Z</time>
      </trkpt>
      <trkpt lat="47.38244" lon="3.89218">
        <ele>343</ele>
        <time>2010-02-02T20:29:20Z</time>
      </trkpt>
      <trkpt lat="47.38234" lon="3.89222">
        <ele>343</ele>
        <time>2010-02-02T20:29:27Z</time>
      </trkpt>
      <trkpt lat="47.38224" lon="3.89229">
        <ele>343</ele>
        <time>2010-02-02T20:29:35Z</time>
      </trkpt>
      <trkpt lat="47.38215" lon="3.89236">
        <ele>343</ele>
        <time>2010-02-02T20:29:39Z</time>
      </trkpt>
      <trkpt lat="47.38206" lon="3.89241">
        <ele>343</ele>
        <time>2010-02-02T20:29:46Z</time>
      </trkpt>
      <trkpt lat="47.38197" lon="3.89244">
        <ele>343</ele>
        <time>2010-02-02T20:29:55Z</time>
      </trkpt>
      <trkpt lat="47.38188" lon="3.89252">
        <ele>343</ele>
        <time>2010-02-02T20:30:01Z</time>
      </trkpt>
      <trkpt lat="47.3818" lon="3.89258">
        <ele>336</ele>
        <time>2010-02-02T20:30:09Z</time>
      </trkpt>
      <trkpt lat="47.38169" lon="3.89265">
        <ele>336</ele>
        <time>2010-02-02T20:30:18Z</time>
      </trkpt>
      <trkpt lat="47.3816" lon="3.89273">
        <ele>325</ele>
        <time>2010-02-02T20:30:23Z</time>
      </trkpt>
      <trkpt lat="47.3815" lon="3.8928">
        <ele>325</ele>
        <time>2010-02-02T20:30:33Z</time>
      </trkpt>
      <trkpt lat="47.38141" lon="3.89281">
        <ele>332</ele>
        <time>2010-02-02T20:30:38Z</time>
      </trkpt>
      <trkpt lat="47.38132" lon="3.89289">
        <ele>332</ele>
        <time>2010-02-02T20:30:48Z</time>
      </trkpt>
      <trkpt lat="47.38123" lon="3.89289">
        <ele>332</ele>
        <time>2010-02-02T20:31:12Z</time>
      </trkpt>
      <trkpt lat="47.38131" lon="3.89293">
        <ele>327</ele>
        <time>2010-02-02T20:33:09Z</time>
      </trkpt>
      <trkpt lat="47.38123" lon="3.89298">
        <ele>327</ele>
        <time>2010-02-02T20:33:56Z</time>
      </trkpt>
      <trkpt lat="47.38114" lon="3.89306">
        <ele>327</ele>
        <time>2010-02-02T20:34:05Z</time>
      </trkpt>
      <trkpt lat="47.38101" lon="3.89316">
        <ele>318</ele>
        <time>2010-02-02T20:34:16Z</time>
      </trkpt>
      <trkpt lat="47.38093" lon="3.89319">
        <ele>324</ele>
        <time>2010-02-02T20:34:25Z</time>
      </trkpt>
      <trkpt lat="47.38082" lon="3.89322">
        <ele>318</ele>
        <time>2010-02-02T20:34:33Z</time>
      </trkpt>
      <trkpt lat="47.38073" lon="3.89324">
        <ele>318</ele>
        <time>2010-02-02T20:34:39Z</time>
      </trkpt>
      <trkpt lat="47.38063" lon="3.89324">
        <ele>318</ele>
        <time>2010-02-02T20:34:45Z</time>
      </trkpt>
      <trkpt lat="47.38053" lon="3.89325">
        <ele>318</ele>
        <time>2010-02-02T20:34:52Z</time>
      </trkpt>
      <trkpt lat="47.38042" lon="3.89327">
        <ele>318</ele>
        <time>2010-02-02T20:34:59Z</time>
      </trkpt>
      <trkpt lat="47.38033" lon="3.89324">
        <ele>312</ele>
        <time>2010-02-02T20:35:06Z</time>
      </trkpt>
      <trkpt lat="47.38021" lon="3.89323">
        <ele>312</ele>
        <time>2010-02-02T20:35:15Z</time>
      </trkpt>
      <trkpt lat="47.38008" lon="3.89315">
        <ele>312</ele>
        <time>2010-02-02T20:35:23Z</time>
      </trkpt>
      <trkpt lat="47.37999" lon="3.89311">
        <ele>318</ele>
        <time>2010-02-02T20:35:30Z</time>
      </trkpt>
      <trkpt lat="47.37991" lon="3.89307">
        <ele>318</ele>
        <time>2010-02-02T20:35:36Z</time>
      </trkpt>
      <trkpt lat="47.37982" lon="3.89303">
        <ele>311</ele>
        <time>2010-02-02T20:35:44Z</time>
      </trkpt>
      <trkpt lat="47.37972" lon="3.89302">
        <ele>305</ele>
        <time>2010-02-02T20:35:56Z</time>
      </trkpt>
      <trkpt lat="47.37965" lon="3.89295">
        <ele>305</ele>
        <time>2010-02-02T20:36:01Z</time>
      </trkpt>
      <trkpt lat="47.37956" lon="3.89287">
        <ele>305</ele>
        <time>2010-02-02T20:36:10Z</time>
      </trkpt>
      <trkpt lat="47.37946" lon="3.8929">
        <ele>305</ele>
        <time>2010-02-02T20:36:16Z</time>
      </trkpt>
      <trkpt lat="47.37936" lon="3.89288">
        <ele>305</ele>
        <time>2010-02-02T20:36:23Z</time>
      </trkpt>
      <trkpt lat="47.37926" lon="3.89287">
        <ele>305</ele>
        <time>2010-02-02T20:36:31Z</time>
      </trkpt>
      <trkpt lat="47.37917" lon="3.89294">
        <ele>300</ele>
        <time>2010-02-02T20:36:37Z</time>
      </trkpt>
      <trkpt lat="47.37907" lon="3.89295">
        <ele>300</ele>
        <time>2010-02-02T20:36:46Z</time>
      </trkpt>
      <trkpt lat="47.37899" lon="3.89299">
        <ele>300</ele>
        <time>2010-02-02T20:36:54Z</time>
      </trkpt>
      <trkpt lat="47.3789" lon="3.89306">
        <ele>294</ele>
        <time>2010-02-02T20:37:02Z</time>
      </trkpt>
      <trkpt lat="47.37882" lon="3.89313">
        <ele>294</ele>
        <time>2010-02-02T20:37:10Z</time>
      </trkpt>
      <trkpt lat="47.37873" lon="3.89318">
        <ele>294</ele>
        <time>2010-02-02T20:37:17Z</time>
      </trkpt>
      <trkpt lat="47.37864" lon="3.89321">
        <ele>294</ele>
        <time>2010-02-02T20:37:25Z</time>
      </trkpt>
      <trkpt lat="47.37855" lon="3.89325">
        <ele>294</ele>
        <time>2010-02-02T20:37:32Z</time>
      </trkpt>
      <trkpt lat="47.37846" lon="3.89329">
        <ele>286</ele>
        <time>2010-02-02T20:37:46Z</time>
      </trkpt>
      <trkpt lat="47.37841" lon="3.89341">
        <ele>286</ele>
        <time>2010-02-02T20:37:58Z</time>
      </trkpt>
      <trkpt lat="47.37829" lon="3.89337">
        <ele>286</ele>
        <time>2010-02-02T20:38:24Z</time>
      </trkpt>
      <trkpt lat="47.3782" lon="3.89335">
        <ele>286</ele>
        <time>2010-02-02T20:38:38Z</time>
      </trkpt>
      <trkpt lat="47.37816" lon="3.89347">
        <ele>293</ele>
        <time>2010-02-02T20:38:50Z</time>
      </trkpt>
      <trkpt lat="47.37808" lon="3.89355">
        <ele>293</ele>
        <time>2010-02-02T20:38:58Z</time>
      </trkpt>
      <trkpt lat="47.37801" lon="3.89365">
        <ele>288</ele>
        <time>2010-02-02T20:39:07Z</time>
      </trkpt>
      <trkpt lat="47.37792" lon="3.89369">
        <ele>288</ele>
        <time>2010-02-02T20:39:14Z</time>
      </trkpt>
      <trkpt lat="47.37786" lon="3.89382">
        <ele>288</ele>
        <time>2010-02-02T20:39:23Z</time>
      </trkpt>
      <trkpt lat="47.3778" lon="3.89393">
        <ele>296</ele>
        <time>2010-02-02T20:39:32Z</time>
      </trkpt>
      <trkpt lat="47.3777" lon="3.89396">
        <ele>296</ele>
        <time>2010-02-02T20:39:38Z</time>
      </trkpt>
      <trkpt lat="47.37763" lon="3.89404">
        <ele>296</ele>
        <time>2010-02-02T20:39:47Z</time>
      </trkpt>
      <trkpt lat="47.37759" lon="3.89417">
        <ele>303</ele>
        <time>2010-02-02T20:39:51Z</time>
      </trkpt>
      <trkpt lat="47.37753" lon="3.89426">
        <ele>303</ele>
        <time>2010-02-02T20:40:05Z</time>
      </trkpt>
      <trkpt lat="47.37745" lon="3.89433">
        <ele>309</ele>
        <time>2010-02-02T20:40:17Z</time>
      </trkpt>
      <trkpt lat="47.37735" lon="3.89439">
        <ele>309</ele>
        <time>2010-02-02T20:40:26Z</time>
      </trkpt>
      <trkpt lat="47.37728" lon="3.8945">
        <ele>317</ele>
        <time>2010-02-02T20:40:35Z</time>
      </trkpt>
      <trkpt lat="47.37719" lon="3.89457">
        <ele>317</ele>
        <time>2010-02-02T20:40:47Z</time>
      </trkpt>
      <trkpt lat="47.37712" lon="3.8947">
        <ele>330</ele>
        <time>2010-02-02T20:41:04Z</time>
      </trkpt>
      <trkpt lat="47.37711" lon="3.89485">
        <ele>340</ele>
        <time>2010-02-02T20:41:16Z</time>
      </trkpt>
      <trkpt lat="47.37709" lon="3.895">
        <ele>347</ele>
        <time>2010-02-02T20:41:23Z</time>
      </trkpt>
      <trkpt lat="47.37704" lon="3.8951">
        <ele>356</ele>
        <time>2010-02-02T20:41:35Z</time>
      </trkpt>
      <trkpt lat="47.37698" lon="3.89525">
        <ele>344</ele>
        <time>2010-02-02T20:41:43Z</time>
      </trkpt>
      <trkpt lat="47.37697" lon="3.89538">
        <ele>334</ele>
        <time>2010-02-02T20:41:54Z</time>
      </trkpt>
      <trkpt lat="47.3769" lon="3.8955">
        <ele>334</ele>
        <time>2010-02-02T20:42:03Z</time>
      </trkpt>
      <trkpt lat="47.37688" lon="3.8957">
        <ele>323</ele>
        <time>2010-02-02T20:42:14Z</time>
      </trkpt>
      <trkpt lat="47.37681" lon="3.89579">
        <ele>331</ele>
        <time>2010-02-02T20:42:33Z</time>
      </trkpt>
      <trkpt lat="47.37679" lon="3.89594">
        <ele>336</ele>
        <time>2010-02-02T20:42:45Z</time>
      </trkpt>
      <trkpt lat="47.3767" lon="3.89598">
        <ele>344</ele>
        <time>2010-02-02T20:42:56Z</time>
      </trkpt>
      <trkpt lat="47.37661" lon="3.89612">
        <ele>344</ele>
        <time>2010-02-02T20:43:04Z</time>
      </trkpt>
      <trkpt lat="47.37654" lon="3.89622">
        <ele>333</ele>
        <time>2010-02-02T20:43:12Z</time>
      </trkpt>
      <trkpt lat="47.37645" lon="3.89634">
        <ele>312</ele>
        <time>2010-02-02T20:43:26Z</time>
      </trkpt>
      <trkpt lat="47.37636" lon="3.8963">
        <ele>312</ele>
        <time>2010-02-02T20:43:36Z</time>
      </trkpt>
      <trkpt lat="47.3763" lon="3.89643">
        <ele>312</ele>
        <time>2010-02-02T20:43:46Z</time>
      </trkpt>
      <trkpt lat="47.37624" lon="3.89633">
        <ele>327</ele>
        <time>2010-02-02T20:43:57Z</time>
      </trkpt>
      <trkpt lat="47.37615" lon="3.89635">
        <ele>339</ele>
        <time>2010-02-02T20:44:26Z</time>
      </trkpt>
      <trkpt lat="47.37606" lon="3.89639">
        <ele>339</ele>
        <time>2010-02-02T20:44:32Z</time>
      </trkpt>
      <trkpt lat="47.37597" lon="3.89637">
        <ele>327</ele>
        <time>2010-02-02T20:44:55Z</time>
      </trkpt>
      <trkpt lat="47.37592" lon="3.89649">
        <ele>327</ele>
        <time>2010-02-02T20:44:59Z</time>
      </trkpt>
      <trkpt lat="47.37581" lon="3.89643">
        <ele>327</ele>
        <time>2010-02-02T20:45:08Z</time>
      </trkpt>
      <trkpt lat="47.37579" lon="3.89657">
        <ele>327</ele>
        <time>2010-02-02T20:45:14Z</time>
      </trkpt>
      <trkpt lat="47.3757" lon="3.89659">
        <ele>327</ele>
        <time>2010-02-02T20:45:24Z</time>
      </trkpt>
      <trkpt lat="47.3756" lon="3.89666">
        <ele>327</ele>
        <time>2010-02-02T20:45:26Z</time>
      </trkpt>
      <trkpt lat="47.37551" lon="3.89664">
        <ele>327</ele>
        <time>2010-02-02T20:45:32Z</time>
      </trkpt>
      <trkpt lat="47.37543" lon="3.8967">
        <ele>327</ele>
        <time>2010-02-02T20:45:41Z</time>
      </trkpt>
      <trkpt lat="47.37542" lon="3.89687">
        <ele>327</ele>
        <time>2010-02-02T20:45:53Z</time>
      </trkpt>
      <trkpt lat="47.37533" lon="3.897">
        <ele>320</ele>
        <time>2010-02-02T20:46:03Z</time>
      </trkpt>
      <trkpt lat="47.37525" lon="3.89705">
        <ele>320</ele>
        <time>2010-02-02T20:46:07Z</time>
      </trkpt>
      <trkpt lat="47.37518" lon="3.89715">
        <ele>329</ele>
        <time>2010-02-02T20:46:17Z</time>
      </trkpt>
      <trkpt lat="47.37515" lon="3.89729">
        <ele>329</ele>
        <time>2010-02-02T20:46:23Z</time>
      </trkpt>
      <trkpt lat="47.37508" lon="3.89741">
        <ele>329</ele>
        <time>2010-02-02T20:46:31Z</time>
      </trkpt>
      <trkpt lat="47.37504" lon="3.89753">
        <ele>329</ele>
        <time>2010-02-02T20:46:41Z</time>
      </trkpt>
      <trkpt lat="47.37502" lon="3.89766">
        <ele>329</ele>
        <time>2010-02-02T20:46:59Z</time>
      </trkpt>
      <trkpt lat="47.37496" lon="3.89777">
        <ele>335</ele>
        <time>2010-02-02T20:47:06Z</time>
      </trkpt>
      <trkpt lat="47.37487" lon="3.89785">
        <ele>345</ele>
        <time>2010-02-02T20:47:18Z</time>
      </trkpt>
      <trkpt lat="47.37483" lon="3.89797">
        <ele>345</ele>
        <time>2010-02-02T20:47:26Z</time>
      </trkpt>
      <trkpt lat="47.37475" lon="3.89801">
        <ele>345</ele>
        <time>2010-02-02T20:47:34Z</time>
      </trkpt>
      <trkpt lat="47.37468" lon="3.89811">
        <ele>339</ele>
        <time>2010-02-02T20:47:52Z</time>
      </trkpt>
      <trkpt lat="47.37459" lon="3.89807">
        <ele>348</ele>
        <time>2010-02-02T20:51:51Z</time>
      </trkpt>
      <trkpt lat="47.3745" lon="3.89811">
        <ele>348</ele>
        <time>2010-02-02T20:51:57Z</time>
      </trkpt>
      <trkpt lat="47.37441" lon="3.89818">
        <ele>348</ele>
        <time>2010-02-02T20:52:03Z</time>
      </trkpt>
      <trkpt lat="47.37432" lon="3.89819">
        <ele>348</ele>
        <time>2010-02-02T20:52:13Z</time>
      </trkpt>
      <trkpt lat="47.37423" lon="3.89824">
        <ele>348</ele>
        <time>2010-02-02T20:52:23Z</time>
      </trkpt>
      <trkpt lat="47.37417" lon="3.89834">
        <ele>348</ele>
        <time>2010-02-02T20:52:33Z</time>
      </trkpt>
      <trkpt lat="47.37411" lon="3.89847">
        <ele>348</ele>
        <time>2010-02-02T20:52:40Z</time>
      </trkpt>
      <trkpt lat="47.37406" lon="3.8986">
        <ele>348</ele>
        <time>2010-02-02T20:52:48Z</time>
      </trkpt>
      <trkpt lat="47.374" lon="3.89872">
        <ele>348</ele>
        <time>2010-02-02T20:52:58Z</time>
      </trkpt>
      <trkpt lat="47.37391" lon="3.89878">
        <ele>348</ele>
        <time>2010-02-02T20:53:05Z</time>
      </trkpt>
      <trkpt lat="47.37382" lon="3.89883">
        <ele>348</ele>
        <time>2010-02-02T20:53:10Z</time>
      </trkpt>
      <trkpt lat="47.37373" lon="3.89886">
        <ele>348</ele>
        <time>2010-02-02T20:53:17Z</time>
      </trkpt>
      <trkpt lat="47.37363" lon="3.89889">
        <ele>348</ele>
        <time>2010-02-02T20:53:27Z</time>
      </trkpt>
      <trkpt lat="47.37353" lon="3.89889">
        <ele>354</ele>
        <time>2010-02-02T20:53:33Z</time>
      </trkpt>
      <trkpt lat="47.37344" lon="3.89894">
        <ele>354</ele>
        <time>2010-02-02T20:53:39Z</time>
      </trkpt>
      <trkpt lat="47.37335" lon="3.89896">
        <ele>354</ele>
        <time>2010-02-02T20:53:47Z</time>
      </trkpt>
      <trkpt lat="47.37325" lon="3.899">
        <ele>354</ele>
        <time>2010-02-02T20:53:53Z</time>
      </trkpt>
      <trkpt lat="47.37315" lon="3.89905">
        <ele>354</ele>
        <time>2010-02-02T20:53:59Z</time>
      </trkpt>
      <trkpt lat="47.37305" lon="3.89906">
        <ele>354</ele>
        <time>2010-02-02T20:54:06Z</time>
      </trkpt>
      <trkpt lat="47.37296" lon="3.89908">
        <ele>354</ele>
        <time>2010-02-02T20:54:13Z</time>
      </trkpt>
      <trkpt lat="47.37287" lon="3.89913">
        <ele>354</ele>
        <time>2010-02-02T20:54:19Z</time>
      </trkpt>
      <trkpt lat="47.37278" lon="3.89914">
        <ele>354</ele>
        <time>2010-02-02T20:54:25Z</time>
      </trkpt>
      <trkpt lat="47.37268" lon="3.89915">
        <ele>354</ele>
        <time>2010-02-02T20:54:32Z</time>
      </trkpt>
      <trkpt lat="47.37259" lon="3.89918">
        <ele>354</ele>
        <time>2010-02-02T20:54:40Z</time>
      </trkpt>
      <trkpt lat="47.3725" lon="3.89923">
        <ele>348</ele>
        <time>2010-02-02T20:54:47Z</time>
      </trkpt>
      <trkpt lat="47.37242" lon="3.8993">
        <ele>348</ele>
        <time>2010-02-02T20:54:55Z</time>
      </trkpt>
      <trkpt lat="47.37234" lon="3.89937">
        <ele>336</ele>
        <time>2010-02-02T20:55:04Z</time>
      </trkpt>
      <trkpt lat="47.37226" lon="3.89943">
        <ele>336</ele>
        <time>2010-02-02T20:55:10Z</time>
      </trkpt>
      <trkpt lat="47.37217" lon="3.89951">
        <ele>336</ele>
        <time>2010-02-02T20:55:18Z</time>
      </trkpt>
      <trkpt lat="47.37207" lon="3.89959">
        <ele>336</ele>
        <time>2010-02-02T20:55:25Z</time>
      </trkpt>
      <trkpt lat="47.372" lon="3.89967">
        <ele>336</ele>
        <time>2010-02-02T20:55:29Z</time>
      </trkpt>
      <trkpt lat="47.37192" lon="3.89976">
        <ele>336</ele>
        <time>2010-02-02T20:55:37Z</time>
      </trkpt>
      <trkpt lat="47.37182" lon="3.89981">
        <ele>344</ele>
        <time>2010-02-02T20:55:43Z</time>
      </trkpt>
      <trkpt lat="47.37172" lon="3.89987">
        <ele>344</ele>
        <time>2010-02-02T20:55:49Z</time>
      </trkpt>
      <trkpt lat="47.37165" lon="3.89995">
        <ele>339</ele>
        <time>2010-02-02T20:55:58Z</time>
      </trkpt>
      <trkpt lat="47.37157" lon="3.90005">
        <ele>333</ele>
        <time>2010-02-02T20:56:05Z</time>
      </trkpt>
      <trkpt lat="47.37149" lon="3.90015">
        <ele>333</ele>
        <time>2010-02-02T20:56:11Z</time>
      </trkpt>
      <trkpt lat="47.37144" lon="3.90026">
        <ele>333</ele>
        <time>2010-02-02T20:56:18Z</time>
      </trkpt>
      <trkpt lat="47.37138" lon="3.90036">
        <ele>333</ele>
        <time>2010-02-02T20:56:24Z</time>
      </trkpt>
      <trkpt lat="47.37132" lon="3.90047">
        <ele>333</ele>
        <time>2010-02-02T20:56:31Z</time>
      </trkpt>
      <trkpt lat="47.37125" lon="3.90058">
        <ele>333</ele>
        <time>2010-02-02T20:56:38Z</time>
      </trkpt>
      <trkpt lat="47.37121" lon="3.9007">
        <ele>333</ele>
        <time>2010-02-02T20:56:45Z</time>
      </trkpt>
      <trkpt lat="47.37116" lon="3.90082">
        <ele>333</ele>
        <time>2010-02-02T20:56:52Z</time>
      </trkpt>
      <trkpt lat="47.37111" lon="3.90093">
        <ele>333</ele>
        <time>2010-02-02T20:57:00Z</time>
      </trkpt>
      <trkpt lat="47.37108" lon="3.90107">
        <ele>333</ele>
        <time>2010-02-02T20:57:06Z</time>
      </trkpt>
      <trkpt lat="47.37105" lon="3.9012">
        <ele>333</ele>
        <time>2010-02-02T20:57:12Z</time>
      </trkpt>
      <trkpt lat="47.37102" lon="3.90134">
        <ele>327</ele>
        <time>2010-02-02T20:57:18Z</time>
      </trkpt>
      <trkpt lat="47.37102" lon="3.90147">
        <ele>327</ele>
        <time>2010-02-02T20:57:25Z</time>
      </trkpt>
      <trkpt lat="47.37102" lon="3.90161">
        <ele>327</ele>
        <time>2010-02-02T20:57:31Z</time>
      </trkpt>
      <trkpt lat="47.37102" lon="3.90174">
        <ele>321</ele>
        <time>2010-02-02T20:57:37Z</time>
      </trkpt>
      <trkpt lat="47.37103" lon="3.90189">
        <ele>321</ele>
        <time>2010-02-02T20:57:45Z</time>
      </trkpt>
      <trkpt lat="47.37104" lon="3.90203">
        <ele>321</ele>
        <time>2010-02-02T20:57:53Z</time>
      </trkpt>
      <trkpt lat="47.37105" lon="3.90217">
        <ele>321</ele>
        <time>2010-02-02T20:58:00Z</time>
      </trkpt>
      <trkpt lat="47.37106" lon="3.90232">
        <ele>321</ele>
        <time>2010-02-02T20:58:11Z</time>
      </trkpt>
      <trkpt lat="47.37104" lon="3.90245">
        <ele>321</ele>
        <time>2010-02-02T20:58:18Z</time>
      </trkpt>
      <trkpt lat="47.371" lon="3.9026">
        <ele>321</ele>
        <time>2010-02-02T20:58:23Z</time>
      </trkpt>
      <trkpt lat="47.37099" lon="3.90276">
        <ele>321</ele>
        <time>2010-02-02T20:58:30Z</time>
      </trkpt>
      <trkpt lat="47.37095" lon="3.90288">
        <ele>321</ele>
        <time>2010-02-02T20:58:40Z</time>
      </trkpt>
      <trkpt lat="47.37086" lon="3.90297">
        <ele>321</ele>
        <time>2010-02-02T20:58:45Z</time>
      </trkpt>
      <trkpt lat="47.37078" lon="3.90305">
        <ele>321</ele>
        <time>2010-02-02T20:58:51Z</time>
      </trkpt>
      <trkpt lat="47.37071" lon="3.90312">
        <ele>321</ele>
        <time>2010-02-02T20:58:58Z</time>
      </trkpt>
      <trkpt lat="47.37062" lon="3.90316">
        <ele>321</ele>
        <time>2010-02-02T20:59:05Z</time>
      </trkpt>
      <trkpt lat="47.37052" lon="3.90319">
        <ele>321</ele>
        <time>2010-02-02T20:59:12Z</time>
      </trkpt>
      <trkpt lat="47.37042" lon="3.90321">
        <ele>321</ele>
        <time>2010-02-02T20:59:18Z</time>
      </trkpt>
      <trkpt lat="47.37032" lon="3.90322">
        <ele>321</ele>
        <time>2010-02-02T20:59:25Z</time>
      </trkpt>
      <trkpt lat="47.37023" lon="3.90322">
        <ele>321</ele>
        <time>2010-02-02T20:59:32Z</time>
      </trkpt>
      <trkpt lat="47.37013" lon="3.90324">
        <ele>321</ele>
        <time>2010-02-02T20:59:38Z</time>
      </trkpt>
      <trkpt lat="47.37003" lon="3.90323">
        <ele>321</ele>
        <time>2010-02-02T20:59:45Z</time>
      </trkpt>
      <trkpt lat="47.36994" lon="3.9032">
        <ele>315</ele>
        <time>2010-02-02T20:59:51Z</time>
      </trkpt>
      <trkpt lat="47.36985" lon="3.90314">
        <ele>315</ele>
        <time>2010-02-02T20:59:59Z</time>
      </trkpt>
      <trkpt lat="47.36978" lon="3.90305">
        <ele>315</ele>
        <time>2010-02-02T21:00:06Z</time>
      </trkpt>
      <trkpt lat="47.36964" lon="3.90298">
        <ele>315</ele>
        <time>2010-02-02T21:00:15Z</time>
      </trkpt>
      <trkpt lat="47.36955" lon="3.90291">
        <ele>307</ele>
        <time>2010-02-02T21:00:22Z</time>
      </trkpt>
      <trkpt lat="47.36945" lon="3.9029">
        <ele>307</ele>
        <time>2010-02-02T21:00:28Z</time>
      </trkpt>
      <trkpt lat="47.36936" lon="3.90287">
        <ele>307</ele>
        <time>2010-02-02T21:00:34Z</time>
      </trkpt>
      <trkpt lat="47.36927" lon="3.90283">
        <ele>313</ele>
        <time>2010-02-02T21:00:42Z</time>
      </trkpt>
      <trkpt lat="47.36917" lon="3.90281">
        <ele>313</ele>
        <time>2010-02-02T21:00:49Z</time>
      </trkpt>
      <trkpt lat="47.36908" lon="3.9028">
        <ele>313</ele>
        <time>2010-02-02T21:00:55Z</time>
      </trkpt>
      <trkpt lat="47.36898" lon="3.90283">
        <ele>313</ele>
        <time>2010-02-02T21:01:02Z</time>
      </trkpt>
      <trkpt lat="47.36889" lon="3.90277">
        <ele>313</ele>
        <time>2010-02-02T21:01:09Z</time>
      </trkpt>
      <trkpt lat="47.3688" lon="3.90275">
        <ele>313</ele>
        <time>2010-02-02T21:01:14Z</time>
      </trkpt>
      <trkpt lat="47.3687" lon="3.90273">
        <ele>304</ele>
        <time>2010-02-02T21:01:21Z</time>
      </trkpt>
      <trkpt lat="47.36861" lon="3.90275">
        <ele>304</ele>
        <time>2010-02-02T21:01:30Z</time>
      </trkpt>
      <trkpt lat="47.36853" lon="3.90281">
        <ele>304</ele>
        <time>2010-02-02T21:01:41Z</time>
      </trkpt>
      <trkpt lat="47.36842" lon="3.90287">
        <ele>304</ele>
        <time>2010-02-02T21:01:48Z</time>
      </trkpt>
      <trkpt lat="47.36833" lon="3.903">
        <ele>304</ele>
        <time>2010-02-02T21:01:55Z</time>
      </trkpt>
      <trkpt lat="47.36826" lon="3.90312">
        <ele>304</ele>
        <time>2010-02-02T21:02:03Z</time>
      </trkpt>
      <trkpt lat="47.36819" lon="3.90318">
        <ele>304</ele>
        <time>2010-02-02T21:02:11Z</time>
      </trkpt>
      <trkpt lat="47.36812" lon="3.90329">
        <ele>304</ele>
        <time>2010-02-02T21:02:18Z</time>
      </trkpt>
      <trkpt lat="47.36808" lon="3.90341">
        <ele>304</ele>
        <time>2010-02-02T21:02:27Z</time>
      </trkpt>
      <trkpt lat="47.36801" lon="3.90351">
        <ele>312</ele>
        <time>2010-02-02T21:02:35Z</time>
      </trkpt>
      <trkpt lat="47.36792" lon="3.90358">
        <ele>312</ele>
        <time>2010-02-02T21:02:39Z</time>
      </trkpt>
      <trkpt lat="47.3679" lon="3.90373">
        <ele>312</ele>
        <time>2010-02-02T21:02:46Z</time>
      </trkpt>
      <trkpt lat="47.36787" lon="3.90387">
        <ele>306</ele>
        <time>2010-02-02T21:02:57Z</time>
      </trkpt>
      <trkpt lat="47.36782" lon="3.904">
        <ele>315</ele>
        <time>2010-02-02T21:03:09Z</time>
      </trkpt>
      <trkpt lat="47.36772" lon="3.90402">
        <ele>315</ele>
        <time>2010-02-02T21:03:12Z</time>
      </trkpt>
      <trkpt lat="47.36762" lon="3.90412">
        <ele>315</ele>
        <time>2010-02-02T21:03:21Z</time>
      </trkpt>
      <trkpt lat="47.36775" lon="3.90411">
        <ele>315</ele>
        <time>2010-02-02T21:03:27Z</time>
      </trkpt>
      <trkpt lat="47.36784" lon="3.90411">
        <ele>321</ele>
        <time>2010-02-02T21:03:34Z</time>
      </trkpt>
      <trkpt lat="47.3679" lon="3.9042">
        <ele>321</ele>
        <time>2010-02-02T21:03:58Z</time>
      </trkpt>
      <trkpt lat="47.36795" lon="3.90432">
        <ele>314</ele>
        <time>2010-02-02T21:04:13Z</time>
      </trkpt>
      <trkpt lat="47.36801" lon="3.90444">
        <ele>301</ele>
        <time>2010-02-02T21:04:19Z</time>
      </trkpt>
      <trkpt lat="47.36806" lon="3.9046">
        <ele>301</ele>
        <time>2010-02-02T21:04:30Z</time>
      </trkpt>
      <trkpt lat="47.36816" lon="3.90468">
        <ele>309</ele>
        <time>2010-02-02T21:04:40Z</time>
      </trkpt>
      <trkpt lat="47.36826" lon="3.90474">
        <ele>317</ele>
        <time>2010-02-02T21:04:46Z</time>
      </trkpt>
      <trkpt lat="47.36833" lon="3.90485">
        <ele>317</ele>
        <time>2010-02-02T21:04:53Z</time>
      </trkpt>
      <trkpt lat="47.36839" lon="3.90496">
        <ele>317</ele>
        <time>2010-02-02T21:05:01Z</time>
      </trkpt>
      <trkpt lat="47.36846" lon="3.90507">
        <ele>310</ele>
        <time>2010-02-02T21:05:08Z</time>
      </trkpt>
      <trkpt lat="47.36847" lon="3.90521">
        <ele>310</ele>
        <time>2010-02-02T21:05:12Z</time>
      </trkpt>
      <trkpt lat="47.36855" lon="3.9053">
        <ele>310</ele>
        <time>2010-02-02T21:05:17Z</time>
      </trkpt>
      <trkpt lat="47.36864" lon="3.90539">
        <ele>305</ele>
        <time>2010-02-02T21:05:25Z</time>
      </trkpt>
      <trkpt lat="47.36872" lon="3.90545">
        <ele>305</ele>
        <time>2010-02-02T21:05:29Z</time>
      </trkpt>
      <trkpt lat="47.3688" lon="3.90556">
        <ele>299</ele>
        <time>2010-02-02T21:05:40Z</time>
      </trkpt>
      <trkpt lat="47.36885" lon="3.90568">
        <ele>299</ele>
        <time>2010-02-02T21:05:47Z</time>
      </trkpt>
      <trkpt lat="47.36889" lon="3.90581">
        <ele>288</ele>
        <time>2010-02-02T21:05:56Z</time>
      </trkpt>
      <trkpt lat="47.36883" lon="3.90591">
        <ele>288</ele>
        <time>2010-02-02T21:06:02Z</time>
      </trkpt>
      <trkpt lat="47.3688" lon="3.90604">
        <ele>288</ele>
        <time>2010-02-02T21:06:10Z</time>
      </trkpt>
      <trkpt lat="47.36878" lon="3.90617">
        <ele>288</ele>
        <time>2010-02-02T21:06:20Z</time>
      </trkpt>
      <trkpt lat="47.36872" lon="3.90628">
        <ele>288</ele>
        <time>2010-02-02T21:06:28Z</time>
      </trkpt>
      <trkpt lat="47.36864" lon="3.90639">
        <ele>288</ele>
        <time>2010-02-02T21:06:32Z</time>
      </trkpt>
      <trkpt lat="47.36854" lon="3.9064">
        <ele>288</ele>
        <time>2010-02-02T21:06:45Z</time>
      </trkpt>
      <trkpt lat="47.36842" lon="3.90632">
        <ele>295</ele>
        <time>2010-02-02T21:06:54Z</time>
      </trkpt>
      <trkpt lat="47.36833" lon="3.90641">
        <ele>295</ele>
        <time>2010-02-02T21:07:04Z</time>
      </trkpt>
      <trkpt lat="47.36822" lon="3.90643">
        <ele>295</ele>
        <time>2010-02-02T21:07:13Z</time>
      </trkpt>
      <trkpt lat="47.36811" lon="3.90643">
        <ele>301</ele>
        <time>2010-02-02T21:07:21Z</time>
      </trkpt>
      <trkpt lat="47.36803" lon="3.90647">
        <ele>301</ele>
        <time>2010-02-02T21:07:27Z</time>
      </trkpt>
      <trkpt lat="47.3679" lon="3.90643">
        <ele>294</ele>
        <time>2010-02-02T21:07:37Z</time>
      </trkpt>
      <trkpt lat="47.36782" lon="3.9065">
        <ele>294</ele>
        <time>2010-02-02T21:07:41Z</time>
      </trkpt>
      <trkpt lat="47.3677" lon="3.90641">
        <ele>294</ele>
        <time>2010-02-02T21:07:52Z</time>
      </trkpt>
      <trkpt lat="47.36762" lon="3.90638">
        <ele>294</ele>
        <time>2010-02-02T21:07:57Z</time>
      </trkpt>
      <trkpt lat="47.36753" lon="3.90629">
        <ele>294</ele>
        <time>2010-02-02T21:08:07Z</time>
      </trkpt>
      <trkpt lat="47.36742" lon="3.90632">
        <ele>302</ele>
        <time>2010-02-02T21:08:13Z</time>
      </trkpt>
      <trkpt lat="47.36734" lon="3.90623">
        <ele>294</ele>
        <time>2010-02-02T21:08:19Z</time>
      </trkpt>
      <trkpt lat="47.36725" lon="3.90621">
        <ele>294</ele>
        <time>2010-02-02T21:08:25Z</time>
      </trkpt>
      <trkpt lat="47.36715" lon="3.90619">
        <ele>294</ele>
        <time>2010-02-02T21:08:33Z</time>
      </trkpt>
      <trkpt lat="47.36706" lon="3.90607">
        <ele>287</ele>
        <time>2010-02-02T21:08:43Z</time>
      </trkpt>
      <trkpt lat="47.36696" lon="3.90602">
        <ele>281</ele>
        <time>2010-02-02T21:08:52Z</time>
      </trkpt>
      <trkpt lat="47.36689" lon="3.90593">
        <ele>281</ele>
        <time>2010-02-02T21:08:57Z</time>
      </trkpt>
      <trkpt lat="47.36682" lon="3.90584">
        <ele>287</ele>
        <time>2010-02-02T21:09:05Z</time>
      </trkpt>
      <trkpt lat="47.36674" lon="3.90577">
        <ele>298</ele>
        <time>2010-02-02T21:09:15Z</time>
      </trkpt>
      <trkpt lat="47.36663" lon="3.90576">
        <ele>306</ele>
        <time>2010-02-02T21:09:23Z</time>
      </trkpt>
      <trkpt lat="47.36654" lon="3.90579">
        <ele>300</ele>
        <time>2010-02-02T21:09:29Z</time>
      </trkpt>
      <trkpt lat="47.36642" lon="3.90579">
        <ele>308</ele>
        <time>2010-02-02T21:09:37Z</time>
      </trkpt>
      <trkpt lat="47.36633" lon="3.90587">
        <ele>302</ele>
        <time>2010-02-02T21:09:43Z</time>
      </trkpt>
      <trkpt lat="47.36625" lon="3.90595">
        <ele>289</ele>
        <time>2010-02-02T21:09:53Z</time>
      </trkpt>
      <trkpt lat="47.36616" lon="3.90599">
        <ele>289</ele>
        <time>2010-02-02T21:10:01Z</time>
      </trkpt>
      <trkpt lat="47.36604" lon="3.90609">
        <ele>289</ele>
        <time>2010-02-02T21:10:12Z</time>
      </trkpt>
      <trkpt lat="47.36596" lon="3.90617">
        <ele>289</ele>
        <time>2010-02-02T21:10:18Z</time>
      </trkpt>
      <trkpt lat="47.36586" lon="3.90621">
        <ele>289</ele>
        <time>2010-02-02T21:10:24Z</time>
      </trkpt>
      <trkpt lat="47.36576" lon="3.90626">
        <ele>289</ele>
        <time>2010-02-02T21:10:33Z</time>
      </trkpt>
      <trkpt lat="47.36567" lon="3.90634">
        <ele>289</ele>
        <time>2010-02-02T21:10:44Z</time>
      </trkpt>
      <trkpt lat="47.36559" lon="3.9063">
        <ele>282</ele>
        <time>2010-02-02T21:10:50Z</time>
      </trkpt>
      <trkpt lat="47.36549" lon="3.90626">
        <ele>282</ele>
        <time>2010-02-02T21:10:59Z</time>
      </trkpt>
      <trkpt lat="47.36537" lon="3.90637">
        <ele>282</ele>
        <time>2010-02-02T21:11:06Z</time>
      </trkpt>
      <trkpt lat="47.36523" lon="3.90638">
        <ele>295</ele>
        <time>2010-02-02T21:11:14Z</time>
      </trkpt>
      <trkpt lat="47.36513" lon="3.90646">
        <ele>295</ele>
        <time>2010-02-02T21:11:24Z</time>
      </trkpt>
      <trkpt lat="47.36505" lon="3.90655">
        <ele>287</ele>
        <time>2010-02-02T21:11:30Z</time>
      </trkpt>
      <trkpt lat="47.36497" lon="3.90665">
        <ele>281</ele>
        <time>2010-02-02T21:11:38Z</time>
      </trkpt>
      <trkpt lat="47.3649" lon="3.90671">
        <ele>290</ele>
        <time>2010-02-02T21:11:45Z</time>
      </trkpt>
      <trkpt lat="47.36478" lon="3.90687">
        <ele>297</ele>
        <time>2010-02-02T21:11:57Z</time>
      </trkpt>
      <trkpt lat="47.36471" lon="3.90698">
        <ele>297</ele>
        <time>2010-02-02T21:12:07Z</time>
      </trkpt>
      <trkpt lat="47.36461" lon="3.90712">
        <ele>297</ele>
        <time>2010-02-02T21:12:19Z</time>
      </trkpt>
      <trkpt lat="47.36454" lon="3.90721">
        <ele>291</ele>
        <time>2010-02-02T21:12:24Z</time>
      </trkpt>
      <trkpt lat="47.36446" lon="3.90728">
        <ele>291</ele>
        <time>2010-02-02T21:12:31Z</time>
      </trkpt>
      <trkpt lat="47.36435" lon="3.90741">
        <ele>283</ele>
        <time>2010-02-02T21:12:41Z</time>
      </trkpt>
      <trkpt lat="47.36427" lon="3.90749">
        <ele>283</ele>
        <time>2010-02-02T21:12:45Z</time>
      </trkpt>
      <trkpt lat="47.36421" lon="3.90759">
        <ele>283</ele>
        <time>2010-02-02T21:12:53Z</time>
      </trkpt>
      <trkpt lat="47.36416" lon="3.9077">
        <ele>283</ele>
        <time>2010-02-02T21:13:02Z</time>
      </trkpt>
      <trkpt lat="47.36407" lon="3.90776">
        <ele>283</ele>
        <time>2010-02-02T21:13:10Z</time>
      </trkpt>
      <trkpt lat="47.36402" lon="3.90787">
        <ele>283</ele>
        <time>2010-02-02T21:13:18Z</time>
      </trkpt>
      <trkpt lat="47.36397" lon="3.90799">
        <ele>283</ele>
        <time>2010-02-02T21:13:25Z</time>
      </trkpt>
      <trkpt lat="47.36389" lon="3.9081">
        <ele>283</ele>
        <time>2010-02-02T21:13:33Z</time>
      </trkpt>
      <trkpt lat="47.36381" lon="3.90821">
        <ele>283</ele>
        <time>2010-02-02T21:13:40Z</time>
      </trkpt>
      <trkpt lat="47.36372" lon="3.90827">
        <ele>283</ele>
        <time>2010-02-02T21:13:48Z</time>
      </trkpt>
      <trkpt lat="47.36364" lon="3.90835">
        <ele>283</ele>
        <time>2010-02-02T21:13:54Z</time>
      </trkpt>
      <trkpt lat="47.36357" lon="3.90844">
        <ele>283</ele>
        <time>2010-02-02T21:14:01Z</time>
      </trkpt>
      <trkpt lat="47.3635" lon="3.90856">
        <ele>268</ele>
        <time>2010-02-02T21:14:14Z</time>
      </trkpt>
      <trkpt lat="47.36346" lon="3.9087">
        <ele>268</ele>
        <time>2010-02-02T21:14:22Z</time>
      </trkpt>
      <trkpt lat="47.36338" lon="3.90879">
        <ele>263</ele>
        <time>2010-02-02T21:14:29Z</time>
      </trkpt>
      <trkpt lat="47.36328" lon="3.90894">
        <ele>263</ele>
        <time>2010-02-02T21:14:34Z</time>
      </trkpt>
      <trkpt lat="47.36319" lon="3.909">
        <ele>268</ele>
        <time>2010-02-02T21:14:39Z</time>
      </trkpt>
      <trkpt lat="47.36311" lon="3.90908">
        <ele>281</ele>
        <time>2010-02-02T21:14:47Z</time>
      </trkpt>
      <trkpt lat="47.36304" lon="3.90916">
        <ele>281</ele>
        <time>2010-02-02T21:14:58Z</time>
      </trkpt>
      <trkpt lat="47.36289" lon="3.90927">
        <ele>292</ele>
        <time>2010-02-02T21:15:07Z</time>
      </trkpt>
      <trkpt lat="47.36281" lon="3.90936">
        <ele>292</ele>
        <time>2010-02-02T21:15:10Z</time>
      </trkpt>
      <trkpt lat="47.36277" lon="3.90949">
        <ele>292</ele>
        <time>2010-02-02T21:15:17Z</time>
      </trkpt>
      <trkpt lat="47.3627" lon="3.90957">
        <ele>292</ele>
        <time>2010-02-02T21:15:29Z</time>
      </trkpt>
      <trkpt lat="47.36261" lon="3.90964">
        <ele>292</ele>
        <time>2010-02-02T21:15:35Z</time>
      </trkpt>
      <trkpt lat="47.36252" lon="3.90975">
        <ele>282</ele>
        <time>2010-02-02T21:15:49Z</time>
      </trkpt>
      <trkpt lat="47.36244" lon="3.90984">
        <ele>288</ele>
        <time>2010-02-02T21:15:53Z</time>
      </trkpt>
      <trkpt lat="47.36235" lon="3.90989">
        <ele>288</ele>
        <time>2010-02-02T21:16:03Z</time>
      </trkpt>
      <trkpt lat="47.36226" lon="3.90995">
        <ele>288</ele>
        <time>2010-02-02T21:16:11Z</time>
      </trkpt>
      <trkpt lat="47.36218" lon="3.91003">
        <ele>295</ele>
        <time>2010-02-02T21:16:15Z</time>
      </trkpt>
      <trkpt lat="47.36209" lon="3.91003">
        <ele>281</ele>
        <time>2010-02-02T21:16:23Z</time>
      </trkpt>
      <trkpt lat="47.362" lon="3.91006">
        <ele>273</ele>
        <time>2010-02-02T21:16:32Z</time>
      </trkpt>
      <trkpt lat="47.36191" lon="3.91003">
        <ele>273</ele>
        <time>2010-02-02T21:16:41Z</time>
      </trkpt>
      <trkpt lat="47.36189" lon="3.90988">
        <ele>273</ele>
        <time>2010-02-02T21:16:51Z</time>
      </trkpt>
      <trkpt lat="47.36184" lon="3.91002">
        <ele>283</ele>
        <time>2010-02-02T21:16:59Z</time>
      </trkpt>
      <trkpt lat="47.36178" lon="3.91013">
        <ele>283</ele>
        <time>2010-02-02T21:17:03Z</time>
      </trkpt>
      <trkpt lat="47.36174" lon="3.91027">
        <ele>290</ele>
        <time>2010-02-02T21:17:07Z</time>
      </trkpt>
      <trkpt lat="47.36168" lon="3.9104">
        <ele>281</ele>
        <time>2010-02-02T21:17:15Z</time>
      </trkpt>
      <trkpt lat="47.36164" lon="3.91053">
        <ele>281</ele>
        <time>2010-02-02T21:17:20Z</time>
      </trkpt>
      <trkpt lat="47.36158" lon="3.91064">
        <ele>276</ele>
        <time>2010-02-02T21:17:27Z</time>
      </trkpt>
      <trkpt lat="47.36156" lon="3.91082">
        <ele>270</ele>
        <time>2010-02-02T21:17:36Z</time>
      </trkpt>
      <trkpt lat="47.36158" lon="3.91098">
        <ele>270</ele>
        <time>2010-02-02T21:17:45Z</time>
      </trkpt>
      <trkpt lat="47.36154" lon="3.9111">
        <ele>270</ele>
        <time>2010-02-02T21:17:51Z</time>
      </trkpt>
      <trkpt lat="47.36149" lon="3.91121">
        <ele>270</ele>
        <time>2010-02-02T21:17:55Z</time>
      </trkpt>
      <trkpt lat="47.36143" lon="3.91135">
        <ele>276</ele>
        <time>2010-02-02T21:17:57Z</time>
      </trkpt>
      <trkpt lat="47.36142" lon="3.9115">
        <ele>276</ele>
        <time>2010-02-02T21:18:08Z</time>
      </trkpt>
      <trkpt lat="47.36136" lon="3.91162">
        <ele>276</ele>
        <time>2010-02-02T21:18:14Z</time>
      </trkpt>
      <trkpt lat="47.36133" lon="3.91176">
        <ele>276</ele>
        <time>2010-02-02T21:18:23Z</time>
      </trkpt>
      <trkpt lat="47.36131" lon="3.91189">
        <ele>276</ele>
        <time>2010-02-02T21:18:30Z</time>
      </trkpt>
      <trkpt lat="47.36122" lon="3.91201">
        <ele>276</ele>
        <time>2010-02-02T21:18:39Z</time>
      </trkpt>
      <trkpt lat="47.36115" lon="3.91212">
        <ele>281</ele>
        <time>2010-02-02T21:18:48Z</time>
      </trkpt>
      <trkpt lat="47.36106" lon="3.91219">
        <ele>281</ele>
        <time>2010-02-02T21:18:54Z</time>
      </trkpt>
      <trkpt lat="47.36098" lon="3.91227">
        <ele>273</ele>
        <time>2010-02-02T21:19:03Z</time>
      </trkpt>
      <trkpt lat="47.36092" lon="3.91239">
        <ele>273</ele>
        <time>2010-02-02T21:19:10Z</time>
      </trkpt>
      <trkpt lat="47.36087" lon="3.9125">
        <ele>273</ele>
        <time>2010-02-02T21:19:18Z</time>
      </trkpt>
      <trkpt lat="47.36089" lon="3.91264">
        <ele>273</ele>
        <time>2010-02-02T21:19:26Z</time>
      </trkpt>
      <trkpt lat="47.36089" lon="3.91277">
        <ele>273</ele>
        <time>2010-02-02T21:19:33Z</time>
      </trkpt>
      <trkpt lat="47.36096" lon="3.91287">
        <ele>273</ele>
        <time>2010-02-02T21:20:10Z</time>
      </trkpt>
      <trkpt lat="47.36104" lon="3.91294">
        <ele>273</ele>
        <time>2010-02-02T21:20:19Z</time>
      </trkpt>
      <trkpt lat="47.36096" lon="3.91286">
        <ele>281</ele>
        <time>2010-02-02T21:23:02Z</time>
      </trkpt>
      <trkpt lat="47.36092" lon="3.91274">
        <ele>289</ele>
        <time>2010-02-02T21:23:08Z</time>
      </trkpt>
      <trkpt lat="47.36082" lon="3.91271">
        <ele>289</ele>
        <time>2010-02-02T21:23:17Z</time>
      </trkpt>
      <trkpt lat="47.36081" lon="3.91285">
        <ele>274</ele>
        <time>2010-02-02T21:23:32Z</time>
      </trkpt>
      <trkpt lat="47.36075" lon="3.91297">
        <ele>268</ele>
        <time>2010-02-02T21:23:37Z</time>
      </trkpt>
      <trkpt lat="47.36067" lon="3.91312">
        <ele>263</ele>
        <time>2010-02-02T21:23:44Z</time>
      </trkpt>
      <trkpt lat="47.36064" lon="3.91325">
        <ele>263</ele>
        <time>2010-02-02T21:23:52Z</time>
      </trkpt>
      <trkpt lat="47.36053" lon="3.91336">
        <ele>263</ele>
        <time>2010-02-02T21:23:59Z</time>
      </trkpt>
      <trkpt lat="47.36045" lon="3.91341">
        <ele>275</ele>
        <time>2010-02-02T21:24:07Z</time>
      </trkpt>
      <trkpt lat="47.36035" lon="3.9135">
        <ele>275</ele>
        <time>2010-02-02T21:24:13Z</time>
      </trkpt>
      <trkpt lat="47.36031" lon="3.91362">
        <ele>275</ele>
        <time>2010-02-02T21:24:30Z</time>
      </trkpt>
      <trkpt lat="47.36021" lon="3.91368">
        <ele>275</ele>
        <time>2010-02-02T21:24:39Z</time>
      </trkpt>
      <trkpt lat="47.36012" lon="3.91373">
        <ele>275</ele>
        <time>2010-02-02T21:24:43Z</time>
      </trkpt>
      <trkpt lat="47.36002" lon="3.91375">
        <ele>275</ele>
        <time>2010-02-02T21:24:48Z</time>
      </trkpt>
      <trkpt lat="47.35995" lon="3.91383">
        <ele>275</ele>
        <time>2010-02-02T21:24:56Z</time>
      </trkpt>
      <trkpt lat="47.35984" lon="3.9139">
        <ele>275</ele>
        <time>2010-02-02T21:25:07Z</time>
      </trkpt>
      <trkpt lat="47.35976" lon="3.914">
        <ele>275</ele>
        <time>2010-02-02T21:25:16Z</time>
      </trkpt>
      <trkpt lat="47.35968" lon="3.91406">
        <ele>275</ele>
        <time>2010-02-02T21:25:21Z</time>
      </trkpt>
      <trkpt lat="47.3596" lon="3.91413">
        <ele>275</ele>
        <time>2010-02-02T21:25:28Z</time>
      </trkpt>
      <trkpt lat="47.35953" lon="3.91424">
        <ele>280</ele>
        <time>2010-02-02T21:25:35Z</time>
      </trkpt>
      <trkpt lat="47.35944" lon="3.91427">
        <ele>280</ele>
        <time>2010-02-02T21:25:42Z</time>
      </trkpt>
      <trkpt lat="47.35936" lon="3.91435">
        <ele>280</ele>
        <time>2010-02-02T21:25:51Z</time>
      </trkpt>
      <trkpt lat="47.35927" lon="3.91441">
        <ele>292</ele>
        <time>2010-02-02T21:26:00Z</time>
      </trkpt>
      <trkpt lat="47.35918" lon="3.91453">
        <ele>292</ele>
        <time>2010-02-02T21:26:09Z</time>
      </trkpt>
      <trkpt lat="47.35912" lon="3.91465">
        <ele>292</ele>
        <time>2010-02-02T21:26:20Z</time>
      </trkpt>
      <trkpt lat="47.35906" lon="3.91475">
        <ele>292</ele>
        <time>2010-02-02T21:26:29Z</time>
      </trkpt>
      <trkpt lat="47.35903" lon="3.91488">
        <ele>292</ele>
        <time>2010-02-02T21:26:36Z</time>
      </trkpt>
      <trkpt lat="47.35901" lon="3.91506">
        <ele>292</ele>
        <time>2010-02-02T21:26:47Z</time>
      </trkpt>
      <trkpt lat="47.35908" lon="3.91522">
        <ele>292</ele>
        <time>2010-02-02T21:26:57Z</time>
      </trkpt>
      <trkpt lat="47.35902" lon="3.91535">
        <ele>292</ele>
        <time>2010-02-02T21:27:14Z</time>
      </trkpt>
      <trkpt lat="47.35893" lon="3.91531">
        <ele>312</ele>
        <time>2010-02-02T21:27:24Z</time>
      </trkpt>
      <trkpt lat="47.35904" lon="3.91531">
        <ele>288</ele>
        <time>2010-02-02T21:27:47Z</time>
      </trkpt>
      <trkpt lat="47.35913" lon="3.91533">
        <ele>288</ele>
        <time>2010-02-02T21:27:53Z</time>
      </trkpt>
      <trkpt lat="47.35923" lon="3.91532">
        <ele>288</ele>
        <time>2010-02-02T21:28:07Z</time>
      </trkpt>
      <trkpt lat="47.35932" lon="3.91529">
        <ele>288</ele>
        <time>2010-02-02T21:28:14Z</time>
      </trkpt>
      <trkpt lat="47.35941" lon="3.91522">
        <ele>298</ele>
        <time>2010-02-02T21:28:22Z</time>
      </trkpt>
      <trkpt lat="47.35948" lon="3.91513">
        <ele>298</ele>
        <time>2010-02-02T21:28:27Z</time>
      </trkpt>
      <trkpt lat="47.35957" lon="3.91511">
        <ele>307</ele>
        <time>2010-02-02T21:28:33Z</time>
      </trkpt>
      <trkpt lat="47.35968" lon="3.91511">
        <ele>307</ele>
        <time>2010-02-02T21:28:40Z</time>
      </trkpt>
      <trkpt lat="47.35978" lon="3.91506">
        <ele>307</ele>
        <time>2010-02-02T21:28:49Z</time>
      </trkpt>
      <trkpt lat="47.35986" lon="3.91499">
        <ele>316</ele>
        <time>2010-02-02T21:28:55Z</time>
      </trkpt>
      <trkpt lat="47.35996" lon="3.91499">
        <ele>316</ele>
        <time>2010-02-02T21:29:01Z</time>
      </trkpt>
      <trkpt lat="47.36006" lon="3.91498">
        <ele>323</ele>
        <time>2010-02-02T21:29:08Z</time>
      </trkpt>
      <trkpt lat="47.36013" lon="3.91509">
        <ele>323</ele>
        <time>2010-02-02T21:29:12Z</time>
      </trkpt>
      <trkpt lat="47.36023" lon="3.91517">
        <ele>317</ele>
        <time>2010-02-02T21:29:19Z</time>
      </trkpt>
      <trkpt lat="47.3603" lon="3.91527">
        <ele>310</ele>
        <time>2010-02-02T21:29:27Z</time>
      </trkpt>
      <trkpt lat="47.36032" lon="3.9154">
        <ele>310</ele>
        <time>2010-02-02T21:29:34Z</time>
      </trkpt>
      <trkpt lat="47.36029" lon="3.91552">
        <ele>300</ele>
        <time>2010-02-02T21:29:43Z</time>
      </trkpt>
      <trkpt lat="47.36023" lon="3.91563">
        <ele>300</ele>
        <time>2010-02-02T21:29:52Z</time>
      </trkpt>
      <trkpt lat="47.36015" lon="3.9157">
        <ele>300</ele>
        <time>2010-02-02T21:30:00Z</time>
      </trkpt>
      <trkpt lat="47.36006" lon="3.91574">
        <ele>318</ele>
        <time>2010-02-02T21:30:12Z</time>
      </trkpt>
      <trkpt lat="47.36" lon="3.91584">
        <ele>313</ele>
        <time>2010-02-02T21:30:19Z</time>
      </trkpt>
      <trkpt lat="47.3599" lon="3.91591">
        <ele>313</ele>
        <time>2010-02-02T21:30:26Z</time>
      </trkpt>
      <trkpt lat="47.35984" lon="3.91601">
        <ele>313</ele>
        <time>2010-02-02T21:30:33Z</time>
      </trkpt>
      <trkpt lat="47.35976" lon="3.91605">
        <ele>313</ele>
        <time>2010-02-02T21:30:40Z</time>
      </trkpt>
      <trkpt lat="47.35967" lon="3.91612">
        <ele>306</ele>
        <time>2010-02-02T21:30:50Z</time>
      </trkpt>
      <trkpt lat="47.35962" lon="3.91622">
        <ele>306</ele>
        <time>2010-02-02T21:31:02Z</time>
      </trkpt>
      <trkpt lat="47.35952" lon="3.91627">
        <ele>306</ele>
        <time>2010-02-02T21:31:08Z</time>
      </trkpt>
      <trkpt lat="47.35944" lon="3.91635">
        <ele>314</ele>
        <time>2010-02-02T21:31:17Z</time>
      </trkpt>
      <trkpt lat="47.35936" lon="3.91641">
        <ele>314</ele>
        <time>2010-02-02T21:31:24Z</time>
      </trkpt>
      <trkpt lat="47.35927" lon="3.91644">
        <ele>314</ele>
        <time>2010-02-02T21:31:29Z</time>
      </trkpt>
      <trkpt lat="47.35914" lon="3.91657">
        <ele>323</ele>
        <time>2010-02-02T21:31:40Z</time>
      </trkpt>
      <trkpt lat="47.35896" lon="3.9165">
        <ele>323</ele>
        <time>2010-02-02T21:31:54Z</time>
      </trkpt>
      <trkpt lat="47.35889" lon="3.91661">
        <ele>323</ele>
        <time>2010-02-02T21:32:05Z</time>
      </trkpt>
      <trkpt lat="47.35877" lon="3.91666">
        <ele>323</ele>
        <time>2010-02-02T21:32:12Z</time>
      </trkpt>
      <trkpt lat="47.35871" lon="3.91677">
        <ele>312</ele>
        <time>2010-02-02T21:32:21Z</time>
      </trkpt>
      <trkpt lat="47.35861" lon="3.91682">
        <ele>312</ele>
        <time>2010-02-02T21:32:27Z</time>
      </trkpt>
      <trkpt lat="47.35854" lon="3.91692">
        <ele>312</ele>
        <time>2010-02-02T21:32:34Z</time>
      </trkpt>
      <trkpt lat="47.35845" lon="3.9169">
        <ele>321</ele>
        <time>2010-02-02T21:32:42Z</time>
      </trkpt>
      <trkpt lat="47.35837" lon="3.91697">
        <ele>321</ele>
        <time>2010-02-02T21:32:53Z</time>
      </trkpt>
      <trkpt lat="47.35825" lon="3.91705">
        <ele>336</ele>
        <time>2010-02-02T21:33:06Z</time>
      </trkpt>
      <trkpt lat="47.35815" lon="3.9171">
        <ele>336</ele>
        <time>2010-02-02T21:33:14Z</time>
      </trkpt>
      <trkpt lat="47.35807" lon="3.91718">
        <ele>336</ele>
        <time>2010-02-02T21:33:20Z</time>
      </trkpt>
      <trkpt lat="47.35797" lon="3.91726">
        <ele>336</ele>
        <time>2010-02-02T21:33:32Z</time>
      </trkpt>
      <trkpt lat="47.35796" lon="3.91742">
        <ele>345</ele>
        <time>2010-02-02T21:33:42Z</time>
      </trkpt>
      <trkpt lat="47.35786" lon="3.91748">
        <ele>340</ele>
        <time>2010-02-02T21:33:47Z</time>
      </trkpt>
      <trkpt lat="47.35776" lon="3.91749">
        <ele>340</ele>
        <time>2010-02-02T21:33:49Z</time>
      </trkpt>
      <trkpt lat="47.35767" lon="3.91762">
        <ele>340</ele>
        <time>2010-02-02T21:34:00Z</time>
      </trkpt>
      <trkpt lat="47.35758" lon="3.91775">
        <ele>329</ele>
        <time>2010-02-02T21:34:12Z</time>
      </trkpt>
      <trkpt lat="47.3575" lon="3.91781">
        <ele>329</ele>
        <time>2010-02-02T21:34:19Z</time>
      </trkpt>
      <trkpt lat="47.35742" lon="3.91789">
        <ele>329</ele>
        <time>2010-02-02T21:34:26Z</time>
      </trkpt>
      <trkpt lat="47.35736" lon="3.918">
        <ele>329</ele>
        <time>2010-02-02T21:34:35Z</time>
      </trkpt>
      <trkpt lat="47.35729" lon="3.9181">
        <ele>329</ele>
        <time>2010-02-02T21:34:42Z</time>
      </trkpt>
      <trkpt lat="47.3572" lon="3.91814">
        <ele>329</ele>
        <time>2010-02-02T21:34:49Z</time>
      </trkpt>
      <trkpt lat="47.35712" lon="3.9182">
        <ele>329</ele>
        <time>2010-02-02T21:34:58Z</time>
      </trkpt>
      <trkpt lat="47.35703" lon="3.91822">
        <ele>329</ele>
        <time>2010-02-02T21:35:06Z</time>
      </trkpt>
      <trkpt lat="47.35694" lon="3.91839">
        <ele>329</ele>
        <time>2010-02-02T21:35:18Z</time>
      </trkpt>
      <trkpt lat="47.35686" lon="3.91849">
        <ele>329</ele>
        <time>2010-02-02T21:35:23Z</time>
      </trkpt>
      <trkpt lat="47.35675" lon="3.91851">
        <ele>347</ele>
        <time>2010-02-02T21:35:34Z</time>
      </trkpt>
      <trkpt lat="47.35666" lon="3.91849">
        <ele>347</ele>
        <time>2010-02-02T21:35:38Z</time>
      </trkpt>
      <trkpt lat="47.3566" lon="3.9186">
        <ele>347</ele>
        <time>2010-02-02T21:35:45Z</time>
      </trkpt>
      <trkpt lat="47.35655" lon="3.91872">
        <ele>347</ele>
        <time>2010-02-02T21:35:54Z</time>
      </trkpt>
      <trkpt lat="47.35648" lon="3.91882">
        <ele>347</ele>
        <time>2010-02-02T21:36:05Z</time>
      </trkpt>
      <trkpt lat="47.35638" lon="3.91886">
        <ele>347</ele>
        <time>2010-02-02T21:36:16Z</time>
      </trkpt>
      <trkpt lat="47.35629" lon="3.9189">
        <ele>347</ele>
        <time>2010-02-02T21:36:21Z</time>
      </trkpt>
      <trkpt lat="47.3562" lon="3.91894">
        <ele>341</ele>
        <time>2010-02-02T21:36:26Z</time>
      </trkpt>
      <trkpt lat="47.35611" lon="3.91898">
        <ele>341</ele>
        <time>2010-02-02T21:36:34Z</time>
      </trkpt>
      <trkpt lat="47.35601" lon="3.91901">
        <ele>341</ele>
        <time>2010-02-02T21:36:47Z</time>
      </trkpt>
      <trkpt lat="47.35592" lon="3.91904">
        <ele>352</ele>
        <time>2010-02-02T21:36:56Z</time>
      </trkpt>
      <trkpt lat="47.35585" lon="3.91913">
        <ele>368</ele>
        <time>2010-02-02T21:37:11Z</time>
      </trkpt>
      <trkpt lat="47.35579" lon="3.91925">
        <ele>368</ele>
        <time>2010-02-02T21:37:18Z</time>
      </trkpt>
      <trkpt lat="47.35567" lon="3.91924">
        <ele>362</ele>
        <time>2010-02-02T21:37:25Z</time>
      </trkpt>
      <trkpt lat="47.35557" lon="3.91926">
        <ele>362</ele>
        <time>2010-02-02T21:37:28Z</time>
      </trkpt>
      <trkpt lat="47.35548" lon="3.91934">
        <ele>350</ele>
        <time>2010-02-02T21:37:38Z</time>
      </trkpt>
      <trkpt lat="47.3554" lon="3.9194">
        <ele>362</ele>
        <time>2010-02-02T21:37:50Z</time>
      </trkpt>
      <trkpt lat="47.35532" lon="3.91948">
        <ele>370</ele>
        <time>2010-02-02T21:37:56Z</time>
      </trkpt>
      <trkpt lat="47.35523" lon="3.91955">
        <ele>370</ele>
        <time>2010-02-02T21:38:01Z</time>
      </trkpt>
      <trkpt lat="47.35514" lon="3.91967">
        <ele>360</ele>
        <time>2010-02-02T21:38:11Z</time>
      </trkpt>
      <trkpt lat="47.35504" lon="3.91972">
        <ele>353</ele>
        <time>2010-02-02T21:38:14Z</time>
      </trkpt>
      <trkpt lat="47.35498" lon="3.91983">
        <ele>353</ele>
        <time>2010-02-02T21:38:24Z</time>
      </trkpt>
      <trkpt lat="47.35493" lon="3.91994">
        <ele>353</ele>
        <time>2010-02-02T21:38:29Z</time>
      </trkpt>
      <trkpt lat="47.35485" lon="3.92003">
        <ele>353</ele>
        <time>2010-02-02T21:38:39Z</time>
      </trkpt>
      <trkpt lat="47.35477" lon="3.92011">
        <ele>362</ele>
        <time>2010-02-02T21:38:47Z</time>
      </trkpt>
      <trkpt lat="47.35473" lon="3.92023">
        <ele>362</ele>
        <time>2010-02-02T21:38:55Z</time>
      </trkpt>
      <trkpt lat="47.35468" lon="3.92036">
        <ele>362</ele>
        <time>2010-02-02T21:39:01Z</time>
      </trkpt>
      <trkpt lat="47.35468" lon="3.92049">
        <ele>362</ele>
        <time>2010-02-02T21:39:08Z</time>
      </trkpt>
      <trkpt lat="47.35462" lon="3.9206">
        <ele>362</ele>
        <time>2010-02-02T21:39:15Z</time>
      </trkpt>
      <trkpt lat="47.35456" lon="3.9207">
        <ele>351</ele>
        <time>2010-02-02T21:39:23Z</time>
      </trkpt>
      <trkpt lat="47.35451" lon="3.92082">
        <ele>351</ele>
        <time>2010-02-02T21:39:29Z</time>
      </trkpt>
      <trkpt lat="47.35452" lon="3.92097">
        <ele>351</ele>
        <time>2010-02-02T21:39:35Z</time>
      </trkpt>
      <trkpt lat="47.35451" lon="3.9211">
        <ele>351</ele>
        <time>2010-02-02T21:39:44Z</time>
      </trkpt>
      <trkpt lat="47.35445" lon="3.92122">
        <ele>360</ele>
        <time>2010-02-02T21:39:53Z</time>
      </trkpt>
      <trkpt lat="47.35445" lon="3.92137">
        <ele>352</ele>
        <time>2010-02-02T21:40:00Z</time>
      </trkpt>
      <trkpt lat="47.35445" lon="3.92151">
        <ele>352</ele>
        <time>2010-02-02T21:40:06Z</time>
      </trkpt>
      <trkpt lat="47.35442" lon="3.92164">
        <ele>358</ele>
        <time>2010-02-02T21:40:14Z</time>
      </trkpt>
      <trkpt lat="47.35438" lon="3.92176">
        <ele>365</ele>
        <time>2010-02-02T21:40:21Z</time>
      </trkpt>
      <trkpt lat="47.35438" lon="3.9219">
        <ele>365</ele>
        <time>2010-02-02T21:40:28Z</time>
      </trkpt>
      <trkpt lat="47.35432" lon="3.92204">
        <ele>372</ele>
        <time>2010-02-02T21:40:34Z</time>
      </trkpt>
      <trkpt lat="47.35431" lon="3.92219">
        <ele>372</ele>
        <time>2010-02-02T21:40:40Z</time>
      </trkpt>
      <trkpt lat="47.35424" lon="3.92227">
        <ele>366</ele>
        <time>2010-02-02T21:40:45Z</time>
      </trkpt>
      <trkpt lat="47.3542" lon="3.92241">
        <ele>366</ele>
        <time>2010-02-02T21:40:55Z</time>
      </trkpt>
      <trkpt lat="47.35421" lon="3.92256">
        <ele>366</ele>
        <time>2010-02-02T21:41:04Z</time>
      </trkpt>
      <trkpt lat="47.3542" lon="3.92269">
        <ele>360</ele>
        <time>2010-02-02T21:41:12Z</time>
      </trkpt>
      <trkpt lat="47.35415" lon="3.92281">
        <ele>360</ele>
        <time>2010-02-02T21:41:19Z</time>
      </trkpt>
      <trkpt lat="47.35415" lon="3.92294">
        <ele>360</ele>
        <time>2010-02-02T21:41:26Z</time>
      </trkpt>
      <trkpt lat="47.35412" lon="3.92307">
        <ele>360</ele>
        <time>2010-02-02T21:41:34Z</time>
      </trkpt>
      <trkpt lat="47.35407" lon="3.92319">
        <ele>360</ele>
        <time>2010-02-02T21:41:42Z</time>
      </trkpt>
      <trkpt lat="47.3541" lon="3.92334">
        <ele>367</ele>
        <time>2010-02-02T21:41:52Z</time>
      </trkpt>
      <trkpt lat="47.35407" lon="3.92346">
        <ele>360</ele>
        <time>2010-02-02T21:41:58Z</time>
      </trkpt>
      <trkpt lat="47.35405" lon="3.92361">
        <ele>369</ele>
        <time>2010-02-02T21:42:05Z</time>
      </trkpt>
      <trkpt lat="47.35402" lon="3.92374">
        <ele>369</ele>
        <time>2010-02-02T21:42:11Z</time>
      </trkpt>
      <trkpt lat="47.35401" lon="3.92389">
        <ele>369</ele>
        <time>2010-02-02T21:42:20Z</time>
      </trkpt>
      <trkpt lat="47.35398" lon="3.92405">
        <ele>369</ele>
        <time>2010-02-02T21:42:28Z</time>
      </trkpt>
      <trkpt lat="47.35396" lon="3.92417">
        <ele>369</ele>
        <time>2010-02-02T21:42:35Z</time>
      </trkpt>
      <trkpt lat="47.35394" lon="3.92431">
        <ele>369</ele>
        <time>2010-02-02T21:42:42Z</time>
      </trkpt>
      <trkpt lat="47.35392" lon="3.92444">
        <ele>379</ele>
        <time>2010-02-02T21:42:52Z</time>
      </trkpt>
      <trkpt lat="47.35389" lon="3.92457">
        <ele>379</ele>
        <time>2010-02-02T21:42:59Z</time>
      </trkpt>
      <trkpt lat="47.35387" lon="3.92471">
        <ele>373</ele>
        <time>2010-02-02T21:43:13Z</time>
      </trkpt>
      <trkpt lat="47.35382" lon="3.92483">
        <ele>378</ele>
        <time>2010-02-02T21:43:31Z</time>
      </trkpt>
      <trkpt lat="47.35381" lon="3.92496">
        <ele>373</ele>
        <time>2010-02-02T21:43:41Z</time>
      </trkpt>
      <trkpt lat="47.3538" lon="3.92512">
        <ele>373</ele>
        <time>2010-02-02T21:43:51Z</time>
      </trkpt>
      <trkpt lat="47.3538" lon="3.92526">
        <ele>367</ele>
        <time>2010-02-02T21:44:00Z</time>
      </trkpt>
      <trkpt lat="47.35376" lon="3.9254">
        <ele>376</ele>
        <time>2010-02-02T21:44:11Z</time>
      </trkpt>
      <trkpt lat="47.35374" lon="3.92554">
        <ele>376</ele>
        <time>2010-02-02T21:44:21Z</time>
      </trkpt>
      <trkpt lat="47.35371" lon="3.92567">
        <ele>383</ele>
        <time>2010-02-02T21:44:29Z</time>
      </trkpt>
      <trkpt lat="47.35367" lon="3.92581">
        <ele>383</ele>
        <time>2010-02-02T21:44:37Z</time>
      </trkpt>
      <trkpt lat="47.35362" lon="3.92595">
        <ele>383</ele>
        <time>2010-02-02T21:44:45Z</time>
      </trkpt>
      <trkpt lat="47.3536" lon="3.92608">
        <ele>383</ele>
        <time>2010-02-02T21:44:54Z</time>
      </trkpt>
      <trkpt lat="47.35355" lon="3.92621">
        <ele>383</ele>
        <time>2010-02-02T21:45:02Z</time>
      </trkpt>
      <trkpt lat="47.35351" lon="3.92633">
        <ele>377</ele>
        <time>2010-02-02T21:45:11Z</time>
      </trkpt>
      <trkpt lat="47.35347" lon="3.92646">
        <ele>377</ele>
        <time>2010-02-02T21:45:21Z</time>
      </trkpt>
      <trkpt lat="47.35346" lon="3.92659">
        <ele>369</ele>
        <time>2010-02-02T21:45:29Z</time>
      </trkpt>
      <trkpt lat="47.35343" lon="3.92672">
        <ele>374</ele>
        <time>2010-02-02T21:45:36Z</time>
      </trkpt>
      <trkpt lat="47.35341" lon="3.92691">
        <ele>374</ele>
        <time>2010-02-02T21:45:47Z</time>
      </trkpt>
      <trkpt lat="47.35338" lon="3.92705">
        <ele>374</ele>
        <time>2010-02-02T21:45:55Z</time>
      </trkpt>
      <trkpt lat="47.35335" lon="3.92717">
        <ele>380</ele>
        <time>2010-02-02T21:46:03Z</time>
      </trkpt>
      <trkpt lat="47.35332" lon="3.92731">
        <ele>380</ele>
        <time>2010-02-02T21:46:13Z</time>
      </trkpt>
      <trkpt lat="47.35334" lon="3.92748">
        <ele>380</ele>
        <time>2010-02-02T21:46:25Z</time>
      </trkpt>
      <trkpt lat="47.35336" lon="3.92761">
        <ele>380</ele>
        <time>2010-02-02T21:46:31Z</time>
      </trkpt>
      <trkpt lat="47.35338" lon="3.92775">
        <ele>380</ele>
        <time>2010-02-02T21:46:38Z</time>
      </trkpt>
      <trkpt lat="47.35339" lon="3.92793">
        <ele>387</ele>
        <time>2010-02-02T21:46:49Z</time>
      </trkpt>
      <trkpt lat="47.35337" lon="3.92807">
        <ele>394</ele>
        <time>2010-02-02T21:47:02Z</time>
      </trkpt>
      <trkpt lat="47.35342" lon="3.92822">
        <ele>394</ele>
        <time>2010-02-02T21:47:13Z</time>
      </trkpt>
      <trkpt lat="47.35343" lon="3.92841">
        <ele>394</ele>
        <time>2010-02-02T21:47:22Z</time>
      </trkpt>
      <trkpt lat="47.35349" lon="3.92854">
        <ele>394</ele>
        <time>2010-02-02T21:47:31Z</time>
      </trkpt>
      <trkpt lat="47.35349" lon="3.92868">
        <ele>389</ele>
        <time>2010-02-02T21:47:41Z</time>
      </trkpt>
      <trkpt lat="47.35352" lon="3.92882">
        <ele>389</ele>
        <time>2010-02-02T21:47:50Z</time>
      </trkpt>
      <trkpt lat="47.35358" lon="3.92894">
        <ele>389</ele>
        <time>2010-02-02T21:47:56Z</time>
      </trkpt>
      <trkpt lat="47.35365" lon="3.92908">
        <ele>395</ele>
        <time>2010-02-02T21:48:03Z</time>
      </trkpt>
      <trkpt lat="47.35362" lon="3.92923">
        <ele>395</ele>
        <time>2010-02-02T21:48:14Z</time>
      </trkpt>
      <trkpt lat="47.35366" lon="3.92935">
        <ele>395</ele>
        <time>2010-02-02T21:48:22Z</time>
      </trkpt>
      <trkpt lat="47.35365" lon="3.9295">
        <ele>395</ele>
        <time>2010-02-02T21:48:33Z</time>
      </trkpt>
      <trkpt lat="47.35368" lon="3.92963">
        <ele>395</ele>
        <time>2010-02-02T21:48:42Z</time>
      </trkpt>
      <trkpt lat="47.35368" lon="3.92976">
        <ele>407</ele>
        <time>2010-02-02T21:48:48Z</time>
      </trkpt>
      <trkpt lat="47.35368" lon="3.9299">
        <ele>407</ele>
        <time>2010-02-02T21:48:55Z</time>
      </trkpt>
      <trkpt lat="47.35371" lon="3.93003">
        <ele>407</ele>
        <time>2010-02-02T21:49:05Z</time>
      </trkpt>
      <trkpt lat="47.35374" lon="3.93016">
        <ele>407</ele>
        <time>2010-02-02T21:49:11Z</time>
      </trkpt>
      <trkpt lat="47.3538" lon="3.93026">
        <ele>402</ele>
        <time>2010-02-02T21:49:19Z</time>
      </trkpt>
      <trkpt lat="47.35387" lon="3.93035">
        <ele>402</ele>
        <time>2010-02-02T21:49:27Z</time>
      </trkpt>
      <trkpt lat="47.35396" lon="3.93042">
        <ele>402</ele>
        <time>2010-02-02T21:49:34Z</time>
      </trkpt>
      <trkpt lat="47.35402" lon="3.93054">
        <ele>402</ele>
        <time>2010-02-02T21:49:45Z</time>
      </trkpt>
      <trkpt lat="47.3541" lon="3.93062">
        <ele>408</ele>
        <time>2010-02-02T21:49:55Z</time>
      </trkpt>
      <trkpt lat="47.35415" lon="3.93074">
        <ele>408</ele>
        <time>2010-02-02T21:50:03Z</time>
      </trkpt>
      <trkpt lat="47.35422" lon="3.93084">
        <ele>408</ele>
        <time>2010-02-02T21:50:09Z</time>
      </trkpt>
      <trkpt lat="47.35431" lon="3.93088">
        <ele>408</ele>
        <time>2010-02-02T21:50:15Z</time>
      </trkpt>
      <trkpt lat="47.35439" lon="3.93091">
        <ele>403</ele>
        <time>2010-02-02T21:50:22Z</time>
      </trkpt>
      <trkpt lat="47.35447" lon="3.931">
        <ele>403</ele>
        <time>2010-02-02T21:50:32Z</time>
      </trkpt>
      <trkpt lat="47.35454" lon="3.93109">
        <ele>403</ele>
        <time>2010-02-02T21:50:40Z</time>
      </trkpt>
      <trkpt lat="47.35467" lon="3.93112">
        <ele>403</ele>
        <time>2010-02-02T21:50:48Z</time>
      </trkpt>
      <trkpt lat="47.35478" lon="3.93114">
        <ele>403</ele>
        <time>2010-02-02T21:50:57Z</time>
      </trkpt>
      <trkpt lat="47.35487" lon="3.93118">
        <ele>403</ele>
        <time>2010-02-02T21:51:06Z</time>
      </trkpt>
      <trkpt lat="47.35495" lon="3.93125">
        <ele>411</ele>
        <time>2010-02-02T21:51:17Z</time>
      </trkpt>
      <trkpt lat="47.35505" lon="3.93128">
        <ele>411</ele>
        <time>2010-02-02T21:51:23Z</time>
      </trkpt>
      <trkpt lat="47.35514" lon="3.93132">
        <ele>400</ele>
        <time>2010-02-02T21:51:32Z</time>
      </trkpt>
      <trkpt lat="47.35523" lon="3.93135">
        <ele>394</ele>
        <time>2010-02-02T21:51:40Z</time>
      </trkpt>
      <trkpt lat="47.35531" lon="3.93141">
        <ele>404</ele>
        <time>2010-02-02T21:51:48Z</time>
      </trkpt>
      <trkpt lat="47.35539" lon="3.93149">
        <ele>411</ele>
        <time>2010-02-02T21:51:55Z</time>
      </trkpt>
      <trkpt lat="47.35547" lon="3.93156">
        <ele>411</ele>
        <time>2010-02-02T21:52:02Z</time>
      </trkpt>
      <trkpt lat="47.35556" lon="3.93161">
        <ele>411</ele>
        <time>2010-02-02T21:52:08Z</time>
      </trkpt>
      <trkpt lat="47.35565" lon="3.93168">
        <ele>411</ele>
        <time>2010-02-02T21:52:17Z</time>
      </trkpt>
      <trkpt lat="47.35575" lon="3.93178">
        <ele>411</ele>
        <time>2010-02-02T21:52:27Z</time>
      </trkpt>
      <trkpt lat="47.35583" lon="3.93189">
        <ele>421</ele>
        <time>2010-02-02T21:52:36Z</time>
      </trkpt>
      <trkpt lat="47.35591" lon="3.93202">
        <ele>429</ele>
        <time>2010-02-02T21:52:45Z</time>
      </trkpt>
      <trkpt lat="47.35599" lon="3.93209">
        <ele>422</ele>
        <time>2010-02-02T21:52:54Z</time>
      </trkpt>
      <trkpt lat="47.35604" lon="3.93221">
        <ele>422</ele>
        <time>2010-02-02T21:53:05Z</time>
      </trkpt>
      <trkpt lat="47.35612" lon="3.9323">
        <ele>422</ele>
        <time>2010-02-02T21:53:13Z</time>
      </trkpt>
      <trkpt lat="47.35622" lon="3.93238">
        <ele>422</ele>
        <time>2010-02-02T21:53:19Z</time>
      </trkpt>
      <trkpt lat="47.35628" lon="3.93249">
        <ele>422</ele>
        <time>2010-02-02T21:53:26Z</time>
      </trkpt>
      <trkpt lat="47.35632" lon="3.93261">
        <ele>422</ele>
        <time>2010-02-02T21:53:32Z</time>
      </trkpt>
      <trkpt lat="47.35638" lon="3.93275">
        <ele>422</ele>
        <time>2010-02-02T21:53:40Z</time>
      </trkpt>
      <trkpt lat="47.35632" lon="3.93288">
        <ele>422</ele>
        <time>2010-02-02T21:53:48Z</time>
      </trkpt>
      <trkpt lat="47.35631" lon="3.93303">
        <ele>436</ele>
        <time>2010-02-02T21:53:59Z</time>
      </trkpt>
      <trkpt lat="47.35629" lon="3.93316">
        <ele>436</ele>
        <time>2010-02-02T21:54:05Z</time>
      </trkpt>
      <trkpt lat="47.35623" lon="3.93328">
        <ele>436</ele>
        <time>2010-02-02T21:54:12Z</time>
      </trkpt>
      <trkpt lat="47.35615" lon="3.93336">
        <ele>436</ele>
        <time>2010-02-02T21:54:21Z</time>
      </trkpt>
      <trkpt lat="47.35609" lon="3.93348">
        <ele>436</ele>
        <time>2010-02-02T21:54:30Z</time>
      </trkpt>
      <trkpt lat="47.35603" lon="3.9336">
        <ele>426</ele>
        <time>2010-02-02T21:54:38Z</time>
      </trkpt>
      <trkpt lat="47.35598" lon="3.93371">
        <ele>426</ele>
        <time>2010-02-02T21:54:44Z</time>
      </trkpt>
      <trkpt lat="47.35593" lon="3.93385">
        <ele>426</ele>
        <time>2010-02-02T21:54:53Z</time>
      </trkpt>
      <trkpt lat="47.35587" lon="3.93396">
        <ele>426</ele>
        <time>2010-02-02T21:55:02Z</time>
      </trkpt>
      <trkpt lat="47.35581" lon="3.93407">
        <ele>426</ele>
        <time>2010-02-02T21:55:09Z</time>
      </trkpt>
      <trkpt lat="47.35576" lon="3.93418">
        <ele>419</ele>
        <time>2010-02-02T21:55:17Z</time>
      </trkpt>
      <trkpt lat="47.35568" lon="3.9343">
        <ele>419</ele>
        <time>2010-02-02T21:55:27Z</time>
      </trkpt>
      <trkpt lat="47.35565" lon="3.93442">
        <ele>419</ele>
        <time>2010-02-02T21:55:33Z</time>
      </trkpt>
      <trkpt lat="47.35559" lon="3.93453">
        <ele>427</ele>
        <time>2010-02-02T21:55:42Z</time>
      </trkpt>
      <trkpt lat="47.35553" lon="3.93464">
        <ele>435</ele>
        <time>2010-02-02T21:55:49Z</time>
      </trkpt>
      <trkpt lat="47.35546" lon="3.93475">
        <ele>435</ele>
        <time>2010-02-02T21:55:57Z</time>
      </trkpt>
      <trkpt lat="47.3554" lon="3.93487">
        <ele>435</ele>
        <time>2010-02-02T21:56:05Z</time>
      </trkpt>
      <trkpt lat="47.35536" lon="3.93499">
        <ele>435</ele>
        <time>2010-02-02T21:56:11Z</time>
      </trkpt>
      <trkpt lat="47.35534" lon="3.93513">
        <ele>444</ele>
        <time>2010-02-02T21:56:27Z</time>
      </trkpt>
      <trkpt lat="47.35523" lon="3.93518">
        <ele>444</ele>
        <time>2010-02-02T21:56:33Z</time>
      </trkpt>
      <trkpt lat="47.35518" lon="3.9353">
        <ele>444</ele>
        <time>2010-02-02T21:56:39Z</time>
      </trkpt>
      <trkpt lat="47.35514" lon="3.93541">
        <ele>444</ele>
        <time>2010-02-02T21:56:54Z</time>
      </trkpt>
      <trkpt lat="47.35507" lon="3.9355">
        <ele>444</ele>
        <time>2010-02-02T21:57:01Z</time>
      </trkpt>
      <trkpt lat="47.35503" lon="3.93564">
        <ele>444</ele>
        <time>2010-02-02T21:57:16Z</time>
      </trkpt>
      <trkpt lat="47.35506" lon="3.93576">
        <ele>444</ele>
        <time>2010-02-02T21:57:27Z</time>
      </trkpt>
      <trkpt lat="47.35515" lon="3.93576">
        <ele>444</ele>
        <time>2010-02-02T21:57:33Z</time>
      </trkpt>
      <trkpt lat="47.35525" lon="3.93583">
        <ele>455</ele>
        <time>2010-02-02T21:58:04Z</time>
      </trkpt>
      <trkpt lat="47.35536" lon="3.93592">
        <ele>455</ele>
        <time>2010-02-02T21:58:16Z</time>
      </trkpt>
      <trkpt lat="47.35542" lon="3.93602">
        <ele>455</ele>
        <time>2010-02-02T21:58:30Z</time>
      </trkpt>
      <trkpt lat="47.35545" lon="3.93618">
        <ele>455</ele>
        <time>2010-02-02T21:58:41Z</time>
      </trkpt>
      <trkpt lat="47.35554" lon="3.93623">
        <ele>455</ele>
        <time>2010-02-02T21:58:46Z</time>
      </trkpt>
      <trkpt lat="47.35557" lon="3.93636">
        <ele>455</ele>
        <time>2010-02-02T21:58:54Z</time>
      </trkpt>
      <trkpt lat="47.3556" lon="3.93648">
        <ele>455</ele>
        <time>2010-02-02T21:59:02Z</time>
      </trkpt>
      <trkpt lat="47.35562" lon="3.93663">
        <ele>449</ele>
        <time>2010-02-02T21:59:14Z</time>
      </trkpt>
      <trkpt lat="47.35571" lon="3.93671">
        <ele>459</ele>
        <time>2010-02-02T21:59:23Z</time>
      </trkpt>
      <trkpt lat="47.35567" lon="3.93683">
        <ele>459</ele>
        <time>2010-02-02T21:59:31Z</time>
      </trkpt>
      <trkpt lat="47.35554" lon="3.93685">
        <ele>459</ele>
        <time>2010-02-02T21:59:44Z</time>
      </trkpt>
      <trkpt lat="47.35534" lon="3.93693">
        <ele>459</ele>
        <time>2010-02-02T21:59:52Z</time>
      </trkpt>
      <trkpt lat="47.35556" lon="3.93687">
        <ele>453</ele>
        <time>2010-02-02T21:59:57Z</time>
      </trkpt>
      <trkpt lat="47.35545" lon="3.93688">
        <ele>453</ele>
        <time>2010-02-02T21:59:59Z</time>
      </trkpt>
      <trkpt lat="47.35554" lon="3.93679">
        <ele>445</ele>
        <time>2010-02-02T22:00:02Z</time>
      </trkpt>
      <trkpt lat="47.3557" lon="3.93662">
        <ele>445</ele>
        <time>2010-02-02T22:00:12Z</time>
      </trkpt>
      <trkpt lat="47.35579" lon="3.93655">
        <ele>445</ele>
        <time>2010-02-02T22:00:14Z</time>
      </trkpt>
      <trkpt lat="47.35587" lon="3.93649">
        <ele>445</ele>
        <time>2010-02-02T22:00:17Z</time>
      </trkpt>
      <trkpt lat="47.35578" lon="3.93648">
        <ele>445</ele>
        <time>2010-02-02T22:00:29Z</time>
      </trkpt>
      <trkpt lat="47.35572" lon="3.9366">
        <ele>445</ele>
        <time>2010-02-02T22:00:31Z</time>
      </trkpt>
      <trkpt lat="47.35564" lon="3.93669">
        <ele>445</ele>
        <time>2010-02-02T22:00:35Z</time>
      </trkpt>
      <trkpt lat="47.3562" lon="3.93639">
        <ele>445</ele>
        <time>2010-02-02T22:00:55Z</time>
      </trkpt>
      <trkpt lat="47.35559" lon="3.9371">
        <ele>445</ele>
        <time>2010-02-02T22:01:25Z</time>
      </trkpt>
      <trkpt lat="47.35559" lon="3.93659">
        <ele>431</ele>
        <time>2010-02-02T22:01:45Z</time>
      </trkpt>
      <trkpt lat="47.35573" lon="3.93666">
        <ele>444</ele>
        <time>2010-02-02T22:01:46Z</time>
      </trkpt>
      <trkpt lat="47.35583" lon="3.93671">
        <ele>457</ele>
        <time>2010-02-02T22:01:48Z</time>
      </trkpt>
      <trkpt lat="47.35593" lon="3.93675">
        <ele>464</ele>
        <time>2010-02-02T22:01:53Z</time>
      </trkpt>
      <trkpt lat="47.35565" lon="3.9368">
        <ele>453</ele>
        <time>2010-02-02T22:01:55Z</time>
      </trkpt>
      <trkpt lat="47.35556" lon="3.9368">
        <ele>453</ele>
        <time>2010-02-02T22:01:57Z</time>
      </trkpt>
      <trkpt lat="47.35565" lon="3.93672">
        <ele>446</ele>
        <time>2010-02-02T22:02:10Z</time>
      </trkpt>
      <trkpt lat="47.35556" lon="3.93671">
        <ele>439</ele>
        <time>2010-02-02T22:02:24Z</time>
      </trkpt>
      <trkpt lat="47.35565" lon="3.93671">
        <ele>450</ele>
        <time>2010-02-02T22:03:05Z</time>
      </trkpt>
      <trkpt lat="47.35556" lon="3.93678">
        <ele>450</ele>
        <time>2010-02-02T22:03:41Z</time>
      </trkpt>
      <trkpt lat="47.35546" lon="3.93687">
        <ele>450</ele>
        <time>2010-02-02T22:03:45Z</time>
      </trkpt>
      <trkpt lat="47.35539" lon="3.93696">
        <ele>450</ele>
        <time>2010-02-02T22:03:49Z</time>
      </trkpt>
      <trkpt lat="47.3553" lon="3.93705">
        <ele>450</ele>
        <time>2010-02-02T22:03:53Z</time>
      </trkpt>
      <trkpt lat="47.3554" lon="3.93706">
        <ele>450</ele>
        <time>2010-02-02T22:03:55Z</time>
      </trkpt>
      <trkpt lat="47.35531" lon="3.93703">
        <ele>459</ele>
        <time>2010-02-02T22:04:08Z</time>
      </trkpt>
      <trkpt lat="47.3554" lon="3.93696">
        <ele>459</ele>
        <time>2010-02-02T22:04:11Z</time>
      </trkpt>
      <trkpt lat="47.35549" lon="3.93687">
        <ele>453</ele>
        <time>2010-02-02T22:04:18Z</time>
      </trkpt>
      <trkpt lat="47.35554" lon="3.93675">
        <ele>445</ele>
        <time>2010-02-02T22:04:47Z</time>
      </trkpt>
      <trkpt lat="47.35545" lon="3.9368">
        <ele>445</ele>
        <time>2010-02-02T22:04:55Z</time>
      </trkpt>
      <trkpt lat="47.3554" lon="3.93692">
        <ele>445</ele>
        <time>2010-02-02T22:05:12Z</time>
      </trkpt>
      <trkpt lat="47.3555" lon="3.93697">
        <ele>456</ele>
        <time>2010-02-02T22:05:21Z</time>
      </trkpt>
      <trkpt lat="47.35559" lon="3.9369">
        <ele>464</ele>
        <time>2010-02-02T22:05:28Z</time>
      </trkpt>
      <trkpt lat="47.35557" lon="3.93676">
        <ele>453</ele>
        <time>2010-02-02T22:05:37Z</time>
      </trkpt>
      <trkpt lat="47.35562" lon="3.93689">
        <ele>453</ele>
        <time>2010-02-02T22:06:34Z</time>
      </trkpt>
      <trkpt lat="47.35559" lon="3.93676">
        <ele>447</ele>
        <time>2010-02-02T22:06:47Z</time>
      </trkpt>
      <trkpt lat="47.3555" lon="3.93685">
        <ele>447</ele>
        <time>2010-02-02T22:07:14Z</time>
      </trkpt>
      <trkpt lat="47.35549" lon="3.93699">
        <ele>447</ele>
        <time>2010-02-02T22:07:22Z</time>
      </trkpt>
      <trkpt lat="47.35545" lon="3.93712">
        <ele>447</ele>
        <time>2010-02-02T22:07:30Z</time>
      </trkpt>
      <trkpt lat="47.35543" lon="3.93724">
        <ele>441</ele>
        <time>2010-02-02T22:07:40Z</time>
      </trkpt>
      <trkpt lat="47.35536" lon="3.93734">
        <ele>441</ele>
        <time>2010-02-02T22:07:49Z</time>
      </trkpt>
      <trkpt lat="47.3553" lon="3.93745">
        <ele>441</ele>
        <time>2010-02-02T22:07:57Z</time>
      </trkpt>
      <trkpt lat="47.35523" lon="3.93753">
        <ele>441</ele>
        <time>2010-02-02T22:08:03Z</time>
      </trkpt>
      <trkpt lat="47.35516" lon="3.93762">
        <ele>441</ele>
        <time>2010-02-02T22:08:11Z</time>
      </trkpt>
      <trkpt lat="47.3552" lon="3.93775">
        <ele>441</ele>
        <time>2010-02-02T22:08:23Z</time>
      </trkpt>
      <trkpt lat="47.35512" lon="3.9378">
        <ele>441</ele>
        <time>2010-02-02T22:08:34Z</time>
      </trkpt>
      <trkpt lat="47.35503" lon="3.93784">
        <ele>441</ele>
        <time>2010-02-02T22:08:40Z</time>
      </trkpt>
      <trkpt lat="47.35497" lon="3.93794">
        <ele>441</ele>
        <time>2010-02-02T22:08:48Z</time>
      </trkpt>
      <trkpt lat="47.3549" lon="3.93802">
        <ele>441</ele>
        <time>2010-02-02T22:08:55Z</time>
      </trkpt>
      <trkpt lat="47.35482" lon="3.9381">
        <ele>435</ele>
        <time>2010-02-02T22:09:03Z</time>
      </trkpt>
      <trkpt lat="47.35478" lon="3.93821">
        <ele>435</ele>
        <time>2010-02-02T22:09:13Z</time>
      </trkpt>
      <trkpt lat="47.3547" lon="3.9383">
        <ele>435</ele>
        <time>2010-02-02T22:09:20Z</time>
      </trkpt>
      <trkpt lat="47.35462" lon="3.93839">
        <ele>435</ele>
        <time>2010-02-02T22:09:28Z</time>
      </trkpt>
      <trkpt lat="47.35457" lon="3.93851">
        <ele>435</ele>
        <time>2010-02-02T22:09:36Z</time>
      </trkpt>
      <trkpt lat="47.35451" lon="3.9386">
        <ele>435</ele>
        <time>2010-02-02T22:09:43Z</time>
      </trkpt>
      <trkpt lat="47.35443" lon="3.93869">
        <ele>435</ele>
        <time>2010-02-02T22:09:51Z</time>
      </trkpt>
      <trkpt lat="47.35437" lon="3.93881">
        <ele>435</ele>
        <time>2010-02-02T22:10:00Z</time>
      </trkpt>
      <trkpt lat="47.35437" lon="3.93895">
        <ele>435</ele>
        <time>2010-02-02T22:10:24Z</time>
      </trkpt>
      <trkpt lat="47.35444" lon="3.93906">
        <ele>435</ele>
        <time>2010-02-02T22:10:32Z</time>
      </trkpt>
      <trkpt lat="47.35449" lon="3.93918">
        <ele>429</ele>
        <time>2010-02-02T22:10:39Z</time>
      </trkpt>
      <trkpt lat="47.35457" lon="3.93927">
        <ele>438</ele>
        <time>2010-02-02T22:10:45Z</time>
      </trkpt>
      <trkpt lat="47.35459" lon="3.93942">
        <ele>438</ele>
        <time>2010-02-02T22:10:55Z</time>
      </trkpt>
      <trkpt lat="47.35462" lon="3.93955">
        <ele>426</ele>
        <time>2010-02-02T22:11:03Z</time>
      </trkpt>
      <trkpt lat="47.35465" lon="3.93971">
        <ele>426</ele>
        <time>2010-02-02T22:11:10Z</time>
      </trkpt>
      <trkpt lat="47.35467" lon="3.93984">
        <ele>426</ele>
        <time>2010-02-02T22:11:17Z</time>
      </trkpt>
      <trkpt lat="47.35472" lon="3.93996">
        <ele>426</ele>
        <time>2010-02-02T22:11:27Z</time>
      </trkpt>
      <trkpt lat="47.35479" lon="3.94004">
        <ele>426</ele>
        <time>2010-02-02T22:11:36Z</time>
      </trkpt>
      <trkpt lat="47.35489" lon="3.94012">
        <ele>426</ele>
        <time>2010-02-02T22:11:44Z</time>
      </trkpt>
      <trkpt lat="47.35497" lon="3.94016">
        <ele>426</ele>
        <time>2010-02-02T22:11:50Z</time>
      </trkpt>
      <trkpt lat="47.35506" lon="3.94018">
        <ele>426</ele>
        <time>2010-02-02T22:11:59Z</time>
      </trkpt>
      <trkpt lat="47.35509" lon="3.94032">
        <ele>426</ele>
        <time>2010-02-02T22:12:08Z</time>
      </trkpt>
      <trkpt lat="47.35513" lon="3.94044">
        <ele>426</ele>
        <time>2010-02-02T22:12:16Z</time>
      </trkpt>
      <trkpt lat="47.35512" lon="3.94062">
        <ele>431</ele>
        <time>2010-02-02T22:12:27Z</time>
      </trkpt>
      <trkpt lat="47.35512" lon="3.94077">
        <ele>431</ele>
        <time>2010-02-02T22:12:34Z</time>
      </trkpt>
      <trkpt lat="47.35512" lon="3.9409">
        <ele>431</ele>
        <time>2010-02-02T22:12:44Z</time>
      </trkpt>
      <trkpt lat="47.35511" lon="3.94106">
        <ele>431</ele>
        <time>2010-02-02T22:12:52Z</time>
      </trkpt>
      <trkpt lat="47.35509" lon="3.94119">
        <ele>431</ele>
        <time>2010-02-02T22:12:57Z</time>
      </trkpt>
      <trkpt lat="47.35508" lon="3.94134">
        <ele>431</ele>
        <time>2010-02-02T22:13:05Z</time>
      </trkpt>
      <trkpt lat="47.35511" lon="3.94147">
        <ele>431</ele>
        <time>2010-02-02T22:13:13Z</time>
      </trkpt>
      <trkpt lat="47.35506" lon="3.94158">
        <ele>431</ele>
        <time>2010-02-02T22:13:20Z</time>
      </trkpt>
      <trkpt lat="47.35504" lon="3.94172">
        <ele>431</ele>
        <time>2010-02-02T22:13:27Z</time>
      </trkpt>
      <trkpt lat="47.35502" lon="3.94184">
        <ele>418</ele>
        <time>2010-02-02T22:13:35Z</time>
      </trkpt>
      <trkpt lat="47.35502" lon="3.942">
        <ele>411</ele>
        <time>2010-02-02T22:13:43Z</time>
      </trkpt>
      <trkpt lat="47.35498" lon="3.94212">
        <ele>411</ele>
        <time>2010-02-02T22:13:50Z</time>
      </trkpt>
      <trkpt lat="47.35494" lon="3.94229">
        <ele>419</ele>
        <time>2010-02-02T22:13:59Z</time>
      </trkpt>
      <trkpt lat="47.35489" lon="3.94244">
        <ele>419</ele>
        <time>2010-02-02T22:14:09Z</time>
      </trkpt>
      <trkpt lat="47.35485" lon="3.94257">
        <ele>419</ele>
        <time>2010-02-02T22:14:17Z</time>
      </trkpt>
      <trkpt lat="47.35485" lon="3.94271">
        <ele>419</ele>
        <time>2010-02-02T22:14:24Z</time>
      </trkpt>
      <trkpt lat="47.35483" lon="3.94283">
        <ele>419</ele>
        <time>2010-02-02T22:14:31Z</time>
      </trkpt>
      <trkpt lat="47.35478" lon="3.94298">
        <ele>419</ele>
        <time>2010-02-02T22:14:39Z</time>
      </trkpt>
      <trkpt lat="47.35476" lon="3.94311">
        <ele>419</ele>
        <time>2010-02-02T22:14:46Z</time>
      </trkpt>
      <trkpt lat="47.35469" lon="3.9432">
        <ele>425</ele>
        <time>2010-02-02T22:14:52Z</time>
      </trkpt>
      <trkpt lat="47.35464" lon="3.94338">
        <ele>425</ele>
        <time>2010-02-02T22:15:01Z</time>
      </trkpt>
      <trkpt lat="47.35462" lon="3.94351">
        <ele>425</ele>
        <time>2010-02-02T22:15:08Z</time>
      </trkpt>
      <trkpt lat="47.35456" lon="3.94363">
        <ele>418</ele>
        <time>2010-02-02T22:15:17Z</time>
      </trkpt>
      <trkpt lat="47.35451" lon="3.94378">
        <ele>412</ele>
        <time>2010-02-02T22:15:28Z</time>
      </trkpt>
      <trkpt lat="47.35446" lon="3.94389">
        <ele>412</ele>
        <time>2010-02-02T22:15:35Z</time>
      </trkpt>
      <trkpt lat="47.3544" lon="3.94402">
        <ele>412</ele>
        <time>2010-02-02T22:15:42Z</time>
      </trkpt>
      <trkpt lat="47.35436" lon="3.94416">
        <ele>412</ele>
        <time>2010-02-02T22:15:50Z</time>
      </trkpt>
      <trkpt lat="47.35429" lon="3.94424">
        <ele>412</ele>
        <time>2010-02-02T22:15:57Z</time>
      </trkpt>
      <trkpt lat="47.35425" lon="3.94437">
        <ele>420</ele>
        <time>2010-02-02T22:16:03Z</time>
      </trkpt>
      <trkpt lat="47.3542" lon="3.94448">
        <ele>420</ele>
        <time>2010-02-02T22:16:11Z</time>
      </trkpt>
      <trkpt lat="47.35412" lon="3.94457">
        <ele>420</ele>
        <time>2010-02-02T22:16:20Z</time>
      </trkpt>
      <trkpt lat="47.35411" lon="3.94472">
        <ele>420</ele>
        <time>2010-02-02T22:16:26Z</time>
      </trkpt>
      <trkpt lat="47.35413" lon="3.94485">
        <ele>420</ele>
        <time>2010-02-02T22:16:33Z</time>
      </trkpt>
      <trkpt lat="47.35406" lon="3.94494">
        <ele>413</ele>
        <time>2010-02-02T22:16:40Z</time>
      </trkpt>
      <trkpt lat="47.35403" lon="3.94507">
        <ele>413</ele>
        <time>2010-02-02T22:16:50Z</time>
      </trkpt>
      <trkpt lat="47.35406" lon="3.94519">
        <ele>413</ele>
        <time>2010-02-02T22:16:55Z</time>
      </trkpt>
      <trkpt lat="47.35399" lon="3.94529">
        <ele>413</ele>
        <time>2010-02-02T22:17:03Z</time>
      </trkpt>
      <trkpt lat="47.35395" lon="3.94543">
        <ele>419</ele>
        <time>2010-02-02T22:17:10Z</time>
      </trkpt>
      <trkpt lat="47.35398" lon="3.94555">
        <ele>419</ele>
        <time>2010-02-02T22:17:16Z</time>
      </trkpt>
      <trkpt lat="47.35396" lon="3.9457">
        <ele>419</ele>
        <time>2010-02-02T22:17:23Z</time>
      </trkpt>
      <trkpt lat="47.35395" lon="3.94583">
        <ele>419</ele>
        <time>2010-02-02T22:17:31Z</time>
      </trkpt>
      <trkpt lat="47.35389" lon="3.94598">
        <ele>419</ele>
        <time>2010-02-02T22:17:43Z</time>
      </trkpt>
      <trkpt lat="47.35389" lon="3.94611">
        <ele>419</ele>
        <time>2010-02-02T22:17:50Z</time>
      </trkpt>
      <trkpt lat="47.35387" lon="3.94625">
        <ele>412</ele>
        <time>2010-02-02T22:18:02Z</time>
      </trkpt>
      <trkpt lat="47.35387" lon="3.94638">
        <ele>412</ele>
        <time>2010-02-02T22:18:10Z</time>
      </trkpt>
      <trkpt lat="47.35388" lon="3.94652">
        <ele>402</ele>
        <time>2010-02-02T22:18:18Z</time>
      </trkpt>
      <trkpt lat="47.35389" lon="3.94665">
        <ele>402</ele>
        <time>2010-02-02T22:18:25Z</time>
      </trkpt>
      <trkpt lat="47.35388" lon="3.94678">
        <ele>402</ele>
        <time>2010-02-02T22:18:30Z</time>
      </trkpt>
      <trkpt lat="47.35387" lon="3.94693">
        <ele>413</ele>
        <time>2010-02-02T22:18:37Z</time>
      </trkpt>
      <trkpt lat="47.35386" lon="3.94708">
        <ele>413</ele>
        <time>2010-02-02T22:18:43Z</time>
      </trkpt>
      <trkpt lat="47.35382" lon="3.94722">
        <ele>413</ele>
        <time>2010-02-02T22:18:52Z</time>
      </trkpt>
      <trkpt lat="47.35376" lon="3.94735">
        <ele>413</ele>
        <time>2010-02-02T22:19:00Z</time>
      </trkpt>
      <trkpt lat="47.35373" lon="3.94748">
        <ele>420</ele>
        <time>2010-02-02T22:19:06Z</time>
      </trkpt>
      <trkpt lat="47.35367" lon="3.94761">
        <ele>420</ele>
        <time>2010-02-02T22:19:14Z</time>
      </trkpt>
      <trkpt lat="47.3536" lon="3.94771">
        <ele>420</ele>
        <time>2010-02-02T22:19:22Z</time>
      </trkpt>
      <trkpt lat="47.35358" lon="3.94784">
        <ele>420</ele>
        <time>2010-02-02T22:19:33Z</time>
      </trkpt>
      <trkpt lat="47.35359" lon="3.948">
        <ele>410</ele>
        <time>2010-02-02T22:19:44Z</time>
      </trkpt>
      <trkpt lat="47.35352" lon="3.94809">
        <ele>410</ele>
        <time>2010-02-02T22:19:50Z</time>
      </trkpt>
      <trkpt lat="47.35352" lon="3.94823">
        <ele>402</ele>
        <time>2010-02-02T22:19:57Z</time>
      </trkpt>
      <trkpt lat="47.35355" lon="3.94837">
        <ele>394</ele>
        <time>2010-02-02T22:20:08Z</time>
      </trkpt>
      <trkpt lat="47.35353" lon="3.94851">
        <ele>394</ele>
        <time>2010-02-02T22:20:15Z</time>
      </trkpt>
      <trkpt lat="47.35351" lon="3.94868">
        <ele>394</ele>
        <time>2010-02-02T22:20:24Z</time>
      </trkpt>
      <trkpt lat="47.35349" lon="3.94881">
        <ele>394</ele>
        <time>2010-02-02T22:20:31Z</time>
      </trkpt>
      <trkpt lat="47.35355" lon="3.9489">
        <ele>389</ele>
        <time>2010-02-02T22:20:41Z</time>
      </trkpt>
      <trkpt lat="47.35358" lon="3.94905">
        <ele>398</ele>
        <time>2010-02-02T22:20:54Z</time>
      </trkpt>
      <trkpt lat="47.35352" lon="3.94916">
        <ele>398</ele>
        <time>2010-02-02T22:21:02Z</time>
      </trkpt>
      <trkpt lat="47.35346" lon="3.94926">
        <ele>398</ele>
        <time>2010-02-02T22:21:09Z</time>
      </trkpt>
      <trkpt lat="47.35342" lon="3.94938">
        <ele>398</ele>
        <time>2010-02-02T22:21:23Z</time>
      </trkpt>
      <trkpt lat="47.35335" lon="3.94948">
        <ele>404</ele>
        <time>2010-02-02T22:21:29Z</time>
      </trkpt>
      <trkpt lat="47.35335" lon="3.94962">
        <ele>398</ele>
        <time>2010-02-02T22:21:36Z</time>
      </trkpt>
      <trkpt lat="47.3533" lon="3.94976">
        <ele>398</ele>
        <time>2010-02-02T22:21:44Z</time>
      </trkpt>
      <trkpt lat="47.35326" lon="3.94987">
        <ele>398</ele>
        <time>2010-02-02T22:21:52Z</time>
      </trkpt>
      <trkpt lat="47.35318" lon="3.94996">
        <ele>390</ele>
        <time>2010-02-02T22:22:00Z</time>
      </trkpt>
      <trkpt lat="47.35311" lon="3.95007">
        <ele>381</ele>
        <time>2010-02-02T22:22:07Z</time>
      </trkpt>
      <trkpt lat="47.35306" lon="3.95018">
        <ele>381</ele>
        <time>2010-02-02T22:22:14Z</time>
      </trkpt>
      <trkpt lat="47.35305" lon="3.95032">
        <ele>381</ele>
        <time>2010-02-02T22:22:22Z</time>
      </trkpt>
      <trkpt lat="47.35306" lon="3.95046">
        <ele>381</ele>
        <time>2010-02-02T22:22:29Z</time>
      </trkpt>
      <trkpt lat="47.35311" lon="3.95059">
        <ele>381</ele>
        <time>2010-02-02T22:22:43Z</time>
      </trkpt>
      <trkpt lat="47.35305" lon="3.95072">
        <ele>381</ele>
        <time>2010-02-02T22:22:51Z</time>
      </trkpt>
      <trkpt lat="47.35304" lon="3.95087">
        <ele>381</ele>
        <time>2010-02-02T22:22:59Z</time>
      </trkpt>
      <trkpt lat="47.35296" lon="3.95093">
        <ele>376</ele>
        <time>2010-02-02T22:23:04Z</time>
      </trkpt>
      <trkpt lat="47.35294" lon="3.95107">
        <ele>381</ele>
        <time>2010-02-02T22:23:13Z</time>
      </trkpt>
      <trkpt lat="47.35302" lon="3.95116">
        <ele>381</ele>
        <time>2010-02-02T22:23:17Z</time>
      </trkpt>
      <trkpt lat="47.35302" lon="3.95129">
        <ele>381</ele>
        <time>2010-02-02T22:23:24Z</time>
      </trkpt>
      <trkpt lat="47.35297" lon="3.95141">
        <ele>381</ele>
        <time>2010-02-02T22:23:30Z</time>
      </trkpt>
      <trkpt lat="47.35302" lon="3.95155">
        <ele>374</ele>
        <time>2010-02-02T22:23:38Z</time>
      </trkpt>
      <trkpt lat="47.35294" lon="3.95164">
        <ele>363</ele>
        <time>2010-02-02T22:23:46Z</time>
      </trkpt>
      <trkpt lat="47.35294" lon="3.95177">
        <ele>363</ele>
        <time>2010-02-02T22:23:52Z</time>
      </trkpt>
      <trkpt lat="47.35296" lon="3.95192">
        <ele>363</ele>
        <time>2010-02-02T22:23:58Z</time>
      </trkpt>
      <trkpt lat="47.35297" lon="3.95206">
        <ele>363</ele>
        <time>2010-02-02T22:24:07Z</time>
      </trkpt>
      <trkpt lat="47.3529" lon="3.95216">
        <ele>363</ele>
        <time>2010-02-02T22:24:13Z</time>
      </trkpt>
      <trkpt lat="47.35288" lon="3.95228">
        <ele>363</ele>
        <time>2010-02-02T22:24:19Z</time>
      </trkpt>
      <trkpt lat="47.35285" lon="3.95242">
        <ele>363</ele>
        <time>2010-02-02T22:24:27Z</time>
      </trkpt>
      <trkpt lat="47.35279" lon="3.95253">
        <ele>363</ele>
        <time>2010-02-02T22:24:33Z</time>
      </trkpt>
      <trkpt lat="47.35279" lon="3.95267">
        <ele>363</ele>
        <time>2010-02-02T22:24:41Z</time>
      </trkpt>
      <trkpt lat="47.35277" lon="3.95281">
        <ele>356</ele>
        <time>2010-02-02T22:24:49Z</time>
      </trkpt>
      <trkpt lat="47.35277" lon="3.95296">
        <ele>350</ele>
        <time>2010-02-02T22:24:57Z</time>
      </trkpt>
      <trkpt lat="47.3527" lon="3.95306">
        <ele>356</ele>
        <time>2010-02-02T22:25:41Z</time>
      </trkpt>
      <trkpt lat="47.35269" lon="3.95321">
        <ele>356</ele>
        <time>2010-02-02T22:25:53Z</time>
      </trkpt>
      <trkpt lat="47.35272" lon="3.95333">
        <ele>356</ele>
        <time>2010-02-02T22:26:01Z</time>
      </trkpt>
      <trkpt lat="47.35276" lon="3.95345">
        <ele>356</ele>
        <time>2010-02-02T22:26:08Z</time>
      </trkpt>
      <trkpt lat="47.35275" lon="3.95358">
        <ele>356</ele>
        <time>2010-02-02T22:26:15Z</time>
      </trkpt>
      <trkpt lat="47.35279" lon="3.95371">
        <ele>351</ele>
        <time>2010-02-02T22:26:24Z</time>
      </trkpt>
      <trkpt lat="47.35281" lon="3.95384">
        <ele>351</ele>
        <time>2010-02-02T22:26:31Z</time>
      </trkpt>
      <trkpt lat="47.35283" lon="3.95397">
        <ele>351</ele>
        <time>2010-02-02T22:26:40Z</time>
      </trkpt>
      <trkpt lat="47.3528" lon="3.95411">
        <ele>345</ele>
        <time>2010-02-02T22:26:47Z</time>
      </trkpt>
      <trkpt lat="47.35275" lon="3.95422">
        <ele>345</ele>
        <time>2010-02-02T22:26:55Z</time>
      </trkpt>
      <trkpt lat="47.35276" lon="3.95437">
        <ele>345</ele>
        <time>2010-02-02T22:27:30Z</time>
      </trkpt>
      <trkpt lat="47.35266" lon="3.95443">
        <ele>345</ele>
        <time>2010-02-02T22:27:38Z</time>
      </trkpt>
      <trkpt lat="47.35262" lon="3.95456">
        <ele>345</ele>
        <time>2010-02-02T22:27:48Z</time>
      </trkpt>
      <trkpt lat="47.3526" lon="3.95469">
        <ele>351</ele>
        <time>2010-02-02T22:27:56Z</time>
      </trkpt>
      <trkpt lat="47.35257" lon="3.95482">
        <ele>351</ele>
        <time>2010-02-02T22:28:02Z</time>
      </trkpt>
      <trkpt lat="47.35258" lon="3.95496">
        <ele>340</ele>
        <time>2010-02-02T22:28:11Z</time>
      </trkpt>
      <trkpt lat="47.3525" lon="3.95508">
        <ele>340</ele>
        <time>2010-02-02T22:28:19Z</time>
      </trkpt>
      <trkpt lat="47.35251" lon="3.95522">
        <ele>329</ele>
        <time>2010-02-02T22:28:28Z</time>
      </trkpt>
      <trkpt lat="47.35253" lon="3.95537">
        <ele>335</ele>
        <time>2010-02-02T22:28:35Z</time>
      </trkpt>
      <trkpt lat="47.35254" lon="3.95551">
        <ele>335</ele>
        <time>2010-02-02T22:28:44Z</time>
      </trkpt>
      <trkpt lat="47.3525" lon="3.95564">
        <ele>335</ele>
        <time>2010-02-02T22:28:55Z</time>
      </trkpt>
      <trkpt lat="47.35241" lon="3.95573">
        <ele>328</ele>
        <time>2010-02-02T22:29:02Z</time>
      </trkpt>
      <trkpt lat="47.35238" lon="3.95586">
        <ele>328</ele>
        <time>2010-02-02T22:29:10Z</time>
      </trkpt>
      <trkpt lat="47.35228" lon="3.95587">
        <ele>328</ele>
        <time>2010-02-02T22:29:32Z</time>
      </trkpt>
      <trkpt lat="47.35219" lon="3.95592">
        <ele>328</ele>
        <time>2010-02-02T22:29:43Z</time>
      </trkpt>
      <trkpt lat="47.3521" lon="3.95595">
        <ele>336</ele>
        <time>2010-02-02T22:29:54Z</time>
      </trkpt>
      <trkpt lat="47.352" lon="3.95589">
        <ele>336</ele>
        <time>2010-02-02T22:30:03Z</time>
      </trkpt>
      <trkpt lat="47.35192" lon="3.95581">
        <ele>336</ele>
        <time>2010-02-02T22:30:14Z</time>
      </trkpt>
      <trkpt lat="47.35183" lon="3.95587">
        <ele>336</ele>
        <time>2010-02-02T22:30:24Z</time>
      </trkpt>
      <trkpt lat="47.35174" lon="3.95592">
        <ele>327</ele>
        <time>2010-02-02T22:30:35Z</time>
      </trkpt>
      <trkpt lat="47.35168" lon="3.95602">
        <ele>327</ele>
        <time>2010-02-02T22:30:43Z</time>
      </trkpt>
      <trkpt lat="47.35166" lon="3.95615">
        <ele>327</ele>
        <time>2010-02-02T22:30:53Z</time>
      </trkpt>
      <trkpt lat="47.35162" lon="3.95628">
        <ele>327</ele>
        <time>2010-02-02T22:30:59Z</time>
      </trkpt>
      <trkpt lat="47.35156" lon="3.95641">
        <ele>342</ele>
        <time>2010-02-02T22:31:06Z</time>
      </trkpt>
      <trkpt lat="47.35151" lon="3.95653">
        <ele>335</ele>
        <time>2010-02-02T22:31:14Z</time>
      </trkpt>
      <trkpt lat="47.35147" lon="3.95665">
        <ele>341</ele>
        <time>2010-02-02T22:31:27Z</time>
      </trkpt>
      <trkpt lat="47.35139" lon="3.95674">
        <ele>347</ele>
        <time>2010-02-02T22:31:35Z</time>
      </trkpt>
      <trkpt lat="47.35134" lon="3.95685">
        <ele>332</ele>
        <time>2010-02-02T22:31:44Z</time>
      </trkpt>
      <trkpt lat="47.35139" lon="3.95699">
        <ele>327</ele>
        <time>2010-02-02T22:31:54Z</time>
      </trkpt>
      <trkpt lat="47.35148" lon="3.95709">
        <ele>319</ele>
        <time>2010-02-02T22:32:00Z</time>
      </trkpt>
      <trkpt lat="47.3515" lon="3.95722">
        <ele>319</ele>
        <time>2010-02-02T22:32:08Z</time>
      </trkpt>
      <trkpt lat="47.35145" lon="3.95734">
        <ele>319</ele>
        <time>2010-02-02T22:32:14Z</time>
      </trkpt>
      <trkpt lat="47.35148" lon="3.95747">
        <ele>319</ele>
        <time>2010-02-02T22:32:21Z</time>
      </trkpt>
      <trkpt lat="47.35153" lon="3.95764">
        <ele>319</ele>
        <time>2010-02-02T22:32:31Z</time>
      </trkpt>
      <trkpt lat="47.35153" lon="3.95778">
        <ele>331</ele>
        <time>2010-02-02T22:32:50Z</time>
      </trkpt>
      <trkpt lat="47.35158" lon="3.95766">
        <ele>331</ele>
        <time>2010-02-02T22:33:28Z</time>
      </trkpt>
      <trkpt lat="47.35149" lon="3.95774">
        <ele>322</ele>
        <time>2010-02-02T22:33:37Z</time>
      </trkpt>
      <trkpt lat="47.35158" lon="3.95777">
        <ele>329</ele>
        <time>2010-02-02T22:34:23Z</time>
      </trkpt>
      <trkpt lat="47.35148" lon="3.95778">
        <ele>329</ele>
        <time>2010-02-02T22:34:55Z</time>
      </trkpt>
      <trkpt lat="47.35155" lon="3.95768">
        <ele>322</ele>
        <time>2010-02-02T22:35:46Z</time>
      </trkpt>
      <trkpt lat="47.35147" lon="3.95762">
        <ele>322</ele>
        <time>2010-02-02T22:36:26Z</time>
      </trkpt>
      <trkpt lat="47.35147" lon="3.95775">
        <ele>322</ele>
        <time>2010-02-02T22:36:52Z</time>
      </trkpt>
      <trkpt lat="47.35137" lon="3.95778">
        <ele>322</ele>
        <time>2010-02-02T22:36:58Z</time>
      </trkpt>
      <trkpt lat="47.35147" lon="3.95773">
        <ele>317</ele>
        <time>2010-02-02T22:37:15Z</time>
      </trkpt>
      <trkpt lat="47.35156" lon="3.9577">
        <ele>328</ele>
        <time>2010-02-02T22:37:45Z</time>
      </trkpt>
      <trkpt lat="47.35147" lon="3.95773">
        <ele>319</ele>
        <time>2010-02-02T22:38:08Z</time>
      </trkpt>
      <trkpt lat="47.35157" lon="3.95776">
        <ele>325</ele>
        <time>2010-02-02T22:48:50Z</time>
      </trkpt>
      <trkpt lat="47.35166" lon="3.95772">
        <ele>325</ele>
        <time>2010-02-02T22:48:58Z</time>
      </trkpt>
      <trkpt lat="47.35156" lon="3.9577">
        <ele>325</ele>
        <time>2010-02-02T22:49:17Z</time>
      </trkpt>
      <trkpt lat="47.35147" lon="3.95769">
        <ele>325</ele>
        <time>2010-02-02T22:49:33Z</time>
      </trkpt>
      <trkpt lat="47.35155" lon="3.95779">
        <ele>318</ele>
        <time>2010-02-02T22:50:21Z</time>
      </trkpt>
      <trkpt lat="47.35163" lon="3.95788">
        <ele>318</ele>
        <time>2010-02-02T22:50:28Z</time>
      </trkpt>
      <trkpt lat="47.35167" lon="3.958">
        <ele>326</ele>
        <time>2010-02-02T22:50:37Z</time>
      </trkpt>
      <trkpt lat="47.35172" lon="3.95811">
        <ele>326</ele>
        <time>2010-02-02T22:50:48Z</time>
      </trkpt>
      <trkpt lat="47.35178" lon="3.95824">
        <ele>326</ele>
        <time>2010-02-02T22:50:56Z</time>
      </trkpt>
      <trkpt lat="47.35181" lon="3.95836">
        <ele>326</ele>
        <time>2010-02-02T22:51:05Z</time>
      </trkpt>
      <trkpt lat="47.35187" lon="3.95847">
        <ele>326</ele>
        <time>2010-02-02T22:51:13Z</time>
      </trkpt>
      <trkpt lat="47.3519" lon="3.9586">
        <ele>326</ele>
        <time>2010-02-02T22:51:22Z</time>
      </trkpt>
    </trkseg>
  </trk>
</gpx>